<?xml version="1.0" encoding="UTF-8" standalone="no" ?>
<gpx xmlns="http://www.topografix.com/GPX/1/1" xmlns:xsi="http://www.w3.org/2001/XMLSchema-instance" xsi:schemaLocation="http://www.topografix.com/GPX/1/1 http://www.topografix.com/GPX/1/1/gpx.xsd" version="1.1" creator="VisuGPX - https://www.visugpx.com">
  <metadata>
    <name>Atour de l%u2019étang du roi</name>
    <desc><![CDATA[Pourquoi faire court quand on peut faire long ? mais pas de boucle fermée, on ne s\'est pas si mal débrouillée!
3 chemins très caillouteux par contre...]]></desc>
  </metadata>
  <trk>
    <name><![CDATA[Saint-Léger-en-Yvelines Autre]]></name>
    <trkseg>
      <trkpt lat="48.70434" lon="1.75432">
        <ele>173.3</ele>
        <time>2015-04-13T08:52:39.000Z</time>
      </trkpt>
      <trkpt lat="48.7043" lon="1.75432">
        <ele>173.2</ele>
        <time>2015-04-13T08:52:43.000Z</time>
      </trkpt>
      <trkpt lat="48.70419" lon="1.75429">
        <ele>173</ele>
        <time>2015-04-13T08:52:50.000Z</time>
      </trkpt>
      <trkpt lat="48.70414" lon="1.75425">
        <ele>173</ele>
        <time>2015-04-13T08:52:54.000Z</time>
      </trkpt>
      <trkpt lat="48.70407" lon="1.75421">
        <ele>173</ele>
        <time>2015-04-13T08:53:00.000Z</time>
      </trkpt>
      <trkpt lat="48.70405" lon="1.75419">
        <ele>173</ele>
        <time>2015-04-13T08:53:06.000Z</time>
      </trkpt>
      <trkpt lat="48.70404" lon="1.75417">
        <ele>173</ele>
        <time>2015-04-13T08:53:13.000Z</time>
      </trkpt>
      <trkpt lat="48.7038" lon="1.75411">
        <ele>173</ele>
        <time>2015-04-13T08:53:56.000Z</time>
      </trkpt>
      <trkpt lat="48.70377" lon="1.75408">
        <ele>173</ele>
        <time>2015-04-13T08:53:57.000Z</time>
      </trkpt>
      <trkpt lat="48.70369" lon="1.75398">
        <ele>173</ele>
        <time>2015-04-13T08:54:05.000Z</time>
      </trkpt>
      <trkpt lat="48.70362" lon="1.75393">
        <ele>173</ele>
        <time>2015-04-13T08:54:12.000Z</time>
      </trkpt>
      <trkpt lat="48.70358" lon="1.75389">
        <ele>173</ele>
        <time>2015-04-13T08:54:15.000Z</time>
      </trkpt>
      <trkpt lat="48.7035" lon="1.75377">
        <ele>172.8</ele>
        <time>2015-04-13T08:54:22.000Z</time>
      </trkpt>
      <trkpt lat="48.70345" lon="1.75374">
        <ele>172.7</ele>
        <time>2015-04-13T08:54:26.000Z</time>
      </trkpt>
      <trkpt lat="48.70338" lon="1.75364">
        <ele>172.2</ele>
        <time>2015-04-13T08:54:33.000Z</time>
      </trkpt>
      <trkpt lat="48.70333" lon="1.75361">
        <ele>172</ele>
        <time>2015-04-13T08:54:37.000Z</time>
      </trkpt>
      <trkpt lat="48.70328" lon="1.75357">
        <ele>172</ele>
        <time>2015-04-13T08:54:42.000Z</time>
      </trkpt>
      <trkpt lat="48.70323" lon="1.75352">
        <ele>171.9</ele>
        <time>2015-04-13T08:54:46.000Z</time>
      </trkpt>
      <trkpt lat="48.70322" lon="1.75346">
        <ele>171.8</ele>
        <time>2015-04-13T08:54:50.000Z</time>
      </trkpt>
      <trkpt lat="48.70316" lon="1.75335">
        <ele>171.4</ele>
        <time>2015-04-13T08:54:57.000Z</time>
      </trkpt>
      <trkpt lat="48.70314" lon="1.75332">
        <ele>171.3</ele>
        <time>2015-04-13T08:54:59.000Z</time>
      </trkpt>
      <trkpt lat="48.70308" lon="1.75325">
        <ele>170.8</ele>
        <time>2015-04-13T08:55:05.000Z</time>
      </trkpt>
      <trkpt lat="48.70308" lon="1.75323">
        <ele>170.7</ele>
        <time>2015-04-13T08:55:08.000Z</time>
      </trkpt>
      <trkpt lat="48.70303" lon="1.75318">
        <ele>170.4</ele>
        <time>2015-04-13T08:55:29.000Z</time>
      </trkpt>
      <trkpt lat="48.703" lon="1.75314">
        <ele>170.3</ele>
        <time>2015-04-13T08:55:33.000Z</time>
      </trkpt>
      <trkpt lat="48.70293" lon="1.75306">
        <ele>170</ele>
        <time>2015-04-13T08:56:03.000Z</time>
      </trkpt>
      <trkpt lat="48.70287" lon="1.75295">
        <ele>170</ele>
        <time>2015-04-13T08:56:07.000Z</time>
      </trkpt>
      <trkpt lat="48.70278" lon="1.7529">
        <ele>170</ele>
        <time>2015-04-13T08:56:13.000Z</time>
      </trkpt>
      <trkpt lat="48.70269" lon="1.75282">
        <ele>170</ele>
        <time>2015-04-13T08:56:21.000Z</time>
      </trkpt>
      <trkpt lat="48.70264" lon="1.75277">
        <ele>170</ele>
        <time>2015-04-13T08:56:26.000Z</time>
      </trkpt>
      <trkpt lat="48.70253" lon="1.7527">
        <ele>169.7</ele>
        <time>2015-04-13T08:56:33.000Z</time>
      </trkpt>
      <trkpt lat="48.70244" lon="1.75261">
        <ele>169.4</ele>
        <time>2015-04-13T08:56:40.000Z</time>
      </trkpt>
      <trkpt lat="48.70239" lon="1.75256">
        <ele>169.2</ele>
        <time>2015-04-13T08:56:44.000Z</time>
      </trkpt>
      <trkpt lat="48.70229" lon="1.7525">
        <ele>169</ele>
        <time>2015-04-13T08:56:51.000Z</time>
      </trkpt>
      <trkpt lat="48.70219" lon="1.75247">
        <ele>169</ele>
        <time>2015-04-13T08:56:58.000Z</time>
      </trkpt>
      <trkpt lat="48.70212" lon="1.75246">
        <ele>168.9</ele>
        <time>2015-04-13T08:57:03.000Z</time>
      </trkpt>
      <trkpt lat="48.70202" lon="1.75249">
        <ele>169</ele>
        <time>2015-04-13T08:57:10.000Z</time>
      </trkpt>
      <trkpt lat="48.70194" lon="1.75252">
        <ele>169</ele>
        <time>2015-04-13T08:57:15.000Z</time>
      </trkpt>
      <trkpt lat="48.70186" lon="1.75254">
        <ele>169</ele>
        <time>2015-04-13T08:57:21.000Z</time>
      </trkpt>
      <trkpt lat="48.70182" lon="1.75255">
        <ele>169</ele>
        <time>2015-04-13T08:57:24.000Z</time>
      </trkpt>
      <trkpt lat="48.70168" lon="1.75261">
        <ele>169</ele>
        <time>2015-04-13T08:57:34.000Z</time>
      </trkpt>
      <trkpt lat="48.70162" lon="1.75266">
        <ele>168.8</ele>
        <time>2015-04-13T08:57:39.000Z</time>
      </trkpt>
      <trkpt lat="48.7015" lon="1.75273">
        <ele>168.4</ele>
        <time>2015-04-13T08:57:46.000Z</time>
      </trkpt>
      <trkpt lat="48.7014" lon="1.75276">
        <ele>168</ele>
        <time>2015-04-13T08:57:52.000Z</time>
      </trkpt>
      <trkpt lat="48.70132" lon="1.75279">
        <ele>167.7</ele>
        <time>2015-04-13T08:57:58.000Z</time>
      </trkpt>
      <trkpt lat="48.70123" lon="1.75285">
        <ele>167.4</ele>
        <time>2015-04-13T08:58:04.000Z</time>
      </trkpt>
      <trkpt lat="48.70115" lon="1.75291">
        <ele>167.1</ele>
        <time>2015-04-13T08:58:10.000Z</time>
      </trkpt>
      <trkpt lat="48.70108" lon="1.75294">
        <ele>166.9</ele>
        <time>2015-04-13T08:58:15.000Z</time>
      </trkpt>
      <trkpt lat="48.70099" lon="1.753">
        <ele>166.6</ele>
        <time>2015-04-13T08:58:21.000Z</time>
      </trkpt>
      <trkpt lat="48.7009" lon="1.75305">
        <ele>166.2</ele>
        <time>2015-04-13T08:58:28.000Z</time>
      </trkpt>
      <trkpt lat="48.70086" lon="1.75306">
        <ele>166.1</ele>
        <time>2015-04-13T08:58:31.000Z</time>
      </trkpt>
      <trkpt lat="48.70071" lon="1.75313">
        <ele>165.3</ele>
        <time>2015-04-13T08:58:40.000Z</time>
      </trkpt>
      <trkpt lat="48.70058" lon="1.75319">
        <ele>164.6</ele>
        <time>2015-04-13T08:58:48.000Z</time>
      </trkpt>
      <trkpt lat="48.7005" lon="1.75323">
        <ele>164.2</ele>
        <time>2015-04-13T08:58:54.000Z</time>
      </trkpt>
      <trkpt lat="48.7004" lon="1.75327">
        <ele>163.7</ele>
        <time>2015-04-13T08:59:00.000Z</time>
      </trkpt>
      <trkpt lat="48.70027" lon="1.75334">
        <ele>163</ele>
        <time>2015-04-13T08:59:08.000Z</time>
      </trkpt>
      <trkpt lat="48.70016" lon="1.75339">
        <ele>162.8</ele>
        <time>2015-04-13T08:59:15.000Z</time>
      </trkpt>
      <trkpt lat="48.70002" lon="1.75345">
        <ele>162.6</ele>
        <time>2015-04-13T08:59:23.000Z</time>
      </trkpt>
      <trkpt lat="48.69992" lon="1.75348">
        <ele>162.5</ele>
        <time>2015-04-13T08:59:30.000Z</time>
      </trkpt>
      <trkpt lat="48.69978" lon="1.75351">
        <ele>162.4</ele>
        <time>2015-04-13T08:59:39.000Z</time>
      </trkpt>
      <trkpt lat="48.69971" lon="1.75355">
        <ele>162.3</ele>
        <time>2015-04-13T08:59:44.000Z</time>
      </trkpt>
      <trkpt lat="48.69962" lon="1.7536">
        <ele>162.4</ele>
        <time>2015-04-13T08:59:51.000Z</time>
      </trkpt>
      <trkpt lat="48.69955" lon="1.75364">
        <ele>162.5</ele>
        <time>2015-04-13T08:59:57.000Z</time>
      </trkpt>
      <trkpt lat="48.69948" lon="1.75368">
        <ele>162.6</ele>
        <time>2015-04-13T09:00:02.000Z</time>
      </trkpt>
      <trkpt lat="48.69934" lon="1.75377">
        <ele>162.8</ele>
        <time>2015-04-13T09:00:10.000Z</time>
      </trkpt>
      <trkpt lat="48.69927" lon="1.75383">
        <ele>162.8</ele>
        <time>2015-04-13T09:00:15.000Z</time>
      </trkpt>
      <trkpt lat="48.69918" lon="1.75387">
        <ele>163</ele>
        <time>2015-04-13T09:00:21.000Z</time>
      </trkpt>
      <trkpt lat="48.69908" lon="1.75391">
        <ele>163.3</ele>
        <time>2015-04-13T09:00:28.000Z</time>
      </trkpt>
      <trkpt lat="48.699" lon="1.7539">
        <ele>163.6</ele>
        <time>2015-04-13T09:00:33.000Z</time>
      </trkpt>
      <trkpt lat="48.6989" lon="1.75379">
        <ele>164</ele>
        <time>2015-04-13T09:00:41.000Z</time>
      </trkpt>
      <trkpt lat="48.69885" lon="1.75365">
        <ele>164</ele>
        <time>2015-04-13T09:00:48.000Z</time>
      </trkpt>
      <trkpt lat="48.69885" lon="1.7535">
        <ele>164.3</ele>
        <time>2015-04-13T09:00:55.000Z</time>
      </trkpt>
      <trkpt lat="48.69883" lon="1.75338">
        <ele>164.6</ele>
        <time>2015-04-13T09:01:00.000Z</time>
      </trkpt>
      <trkpt lat="48.69881" lon="1.75323">
        <ele>164.8</ele>
        <time>2015-04-13T09:01:06.000Z</time>
      </trkpt>
      <trkpt lat="48.69877" lon="1.75303">
        <ele>165.1</ele>
        <time>2015-04-13T09:01:14.000Z</time>
      </trkpt>
      <trkpt lat="48.69874" lon="1.75287">
        <ele>165.3</ele>
        <time>2015-04-13T09:01:20.000Z</time>
      </trkpt>
      <trkpt lat="48.6987" lon="1.75268">
        <ele>165.3</ele>
        <time>2015-04-13T09:01:25.000Z</time>
      </trkpt>
      <trkpt lat="48.69865" lon="1.75249">
        <ele>165.2</ele>
        <time>2015-04-13T09:01:29.000Z</time>
      </trkpt>
      <trkpt lat="48.69859" lon="1.75208">
        <ele>165.9</ele>
        <time>2015-04-13T09:01:37.000Z</time>
      </trkpt>
      <trkpt lat="48.69855" lon="1.75183">
        <ele>165.9</ele>
        <time>2015-04-13T09:01:42.000Z</time>
      </trkpt>
      <trkpt lat="48.6985" lon="1.75144">
        <ele>166.5</ele>
        <time>2015-04-13T09:01:49.000Z</time>
      </trkpt>
      <trkpt lat="48.69845" lon="1.75112">
        <ele>166.4</ele>
        <time>2015-04-13T09:01:55.000Z</time>
      </trkpt>
      <trkpt lat="48.69839" lon="1.75081">
        <ele>166.2</ele>
        <time>2015-04-13T09:02:01.000Z</time>
      </trkpt>
      <trkpt lat="48.69837" lon="1.75061">
        <ele>166.1</ele>
        <time>2015-04-13T09:02:05.000Z</time>
      </trkpt>
      <trkpt lat="48.69832" lon="1.75037">
        <ele>165.9</ele>
        <time>2015-04-13T09:02:09.000Z</time>
      </trkpt>
      <trkpt lat="48.69825" lon="1.75">
        <ele>165.4</ele>
        <time>2015-04-13T09:02:15.000Z</time>
      </trkpt>
      <trkpt lat="48.69823" lon="1.74988">
        <ele>165.3</ele>
        <time>2015-04-13T09:02:19.000Z</time>
      </trkpt>
      <trkpt lat="48.69824" lon="1.74982">
        <ele>165.3</ele>
        <time>2015-04-13T09:02:22.000Z</time>
      </trkpt>
      <trkpt lat="48.69823" lon="1.74981">
        <ele>165.3</ele>
        <time>2015-04-13T09:02:25.000Z</time>
      </trkpt>
      <trkpt lat="48.6982" lon="1.74953">
        <ele>165</ele>
        <time>2015-04-13T09:02:45.000Z</time>
      </trkpt>
      <trkpt lat="48.69817" lon="1.74935">
        <ele>164.8</ele>
        <time>2015-04-13T09:02:52.000Z</time>
      </trkpt>
      <trkpt lat="48.69813" lon="1.74916">
        <ele>164.5</ele>
        <time>2015-04-13T09:03:00.000Z</time>
      </trkpt>
      <trkpt lat="48.69811" lon="1.74903">
        <ele>164.4</ele>
        <time>2015-04-13T09:03:06.000Z</time>
      </trkpt>
      <trkpt lat="48.69811" lon="1.7489">
        <ele>164.4</ele>
        <time>2015-04-13T09:03:12.000Z</time>
      </trkpt>
      <trkpt lat="48.69824" lon="1.74882">
        <ele>165.3</ele>
        <time>2015-04-13T09:03:20.000Z</time>
      </trkpt>
      <trkpt lat="48.69839" lon="1.74874">
        <ele>166.4</ele>
        <time>2015-04-13T09:03:26.000Z</time>
      </trkpt>
      <trkpt lat="48.69861" lon="1.74864">
        <ele>168</ele>
        <time>2015-04-13T09:03:33.000Z</time>
      </trkpt>
      <trkpt lat="48.69882" lon="1.74856">
        <ele>168.8</ele>
        <time>2015-04-13T09:03:39.000Z</time>
      </trkpt>
      <trkpt lat="48.69902" lon="1.74844">
        <ele>169.5</ele>
        <time>2015-04-13T09:03:45.000Z</time>
      </trkpt>
      <trkpt lat="48.6992" lon="1.74834">
        <ele>170.1</ele>
        <time>2015-04-13T09:03:50.000Z</time>
      </trkpt>
      <trkpt lat="48.69949" lon="1.74819">
        <ele>170.3</ele>
        <time>2015-04-13T09:03:58.000Z</time>
      </trkpt>
      <trkpt lat="48.69967" lon="1.74811">
        <ele>169.4</ele>
        <time>2015-04-13T09:04:03.000Z</time>
      </trkpt>
      <trkpt lat="48.69996" lon="1.74796">
        <ele>167.8</ele>
        <time>2015-04-13T09:04:11.000Z</time>
      </trkpt>
      <trkpt lat="48.70021" lon="1.74785">
        <ele>167.3</ele>
        <time>2015-04-13T09:04:18.000Z</time>
      </trkpt>
      <trkpt lat="48.7003" lon="1.7478">
        <ele>167.2</ele>
        <time>2015-04-13T09:04:23.000Z</time>
      </trkpt>
      <trkpt lat="48.70034" lon="1.74779">
        <ele>167.3</ele>
        <time>2015-04-13T09:04:27.000Z</time>
      </trkpt>
      <trkpt lat="48.70042" lon="1.74777">
        <ele>167.5</ele>
        <time>2015-04-13T09:04:33.000Z</time>
      </trkpt>
      <trkpt lat="48.70052" lon="1.74775">
        <ele>167.8</ele>
        <time>2015-04-13T09:04:39.000Z</time>
      </trkpt>
      <trkpt lat="48.70065" lon="1.7477">
        <ele>167.7</ele>
        <time>2015-04-13T09:04:46.000Z</time>
      </trkpt>
      <trkpt lat="48.70078" lon="1.74765">
        <ele>167.5</ele>
        <time>2015-04-13T09:04:54.000Z</time>
      </trkpt>
      <trkpt lat="48.70089" lon="1.74758">
        <ele>167.3</ele>
        <time>2015-04-13T09:05:01.000Z</time>
      </trkpt>
      <trkpt lat="48.70097" lon="1.74752">
        <ele>167.1</ele>
        <time>2015-04-13T09:05:06.000Z</time>
      </trkpt>
      <trkpt lat="48.70103" lon="1.7475">
        <ele>167</ele>
        <time>2015-04-13T09:05:10.000Z</time>
      </trkpt>
      <trkpt lat="48.70115" lon="1.74742">
        <ele>167</ele>
        <time>2015-04-13T09:05:18.000Z</time>
      </trkpt>
      <trkpt lat="48.70117" lon="1.74742">
        <ele>166.9</ele>
        <time>2015-04-13T09:05:19.000Z</time>
      </trkpt>
      <trkpt lat="48.70127" lon="1.74739">
        <ele>166.8</ele>
        <time>2015-04-13T09:05:26.000Z</time>
      </trkpt>
      <trkpt lat="48.70136" lon="1.74737">
        <ele>166.6</ele>
        <time>2015-04-13T09:05:31.000Z</time>
      </trkpt>
      <trkpt lat="48.70143" lon="1.74732">
        <ele>166.2</ele>
        <time>2015-04-13T09:05:37.000Z</time>
      </trkpt>
      <trkpt lat="48.70144" lon="1.7473">
        <ele>166.1</ele>
        <time>2015-04-13T09:05:38.000Z</time>
      </trkpt>
      <trkpt lat="48.70156" lon="1.74722">
        <ele>165.3</ele>
        <time>2015-04-13T09:05:46.000Z</time>
      </trkpt>
      <trkpt lat="48.70168" lon="1.74717">
        <ele>164.6</ele>
        <time>2015-04-13T09:05:53.000Z</time>
      </trkpt>
      <trkpt lat="48.70178" lon="1.74712">
        <ele>164.3</ele>
        <time>2015-04-13T09:05:59.000Z</time>
      </trkpt>
      <trkpt lat="48.70188" lon="1.74707">
        <ele>163.9</ele>
        <time>2015-04-13T09:06:06.000Z</time>
      </trkpt>
      <trkpt lat="48.70192" lon="1.74705">
        <ele>163.8</ele>
        <time>2015-04-13T09:06:09.000Z</time>
      </trkpt>
      <trkpt lat="48.702" lon="1.747">
        <ele>163.4</ele>
        <time>2015-04-13T09:06:15.000Z</time>
      </trkpt>
      <trkpt lat="48.70214" lon="1.74696">
        <ele>163.1</ele>
        <time>2015-04-13T09:06:24.000Z</time>
      </trkpt>
      <trkpt lat="48.70225" lon="1.7469">
        <ele>162.8</ele>
        <time>2015-04-13T09:06:31.000Z</time>
      </trkpt>
      <trkpt lat="48.70233" lon="1.74686">
        <ele>162.7</ele>
        <time>2015-04-13T09:06:36.000Z</time>
      </trkpt>
      <trkpt lat="48.70242" lon="1.74682">
        <ele>162.6</ele>
        <time>2015-04-13T09:06:42.000Z</time>
      </trkpt>
      <trkpt lat="48.70252" lon="1.74678">
        <ele>162.5</ele>
        <time>2015-04-13T09:06:48.000Z</time>
      </trkpt>
      <trkpt lat="48.70261" lon="1.74672">
        <ele>162.5</ele>
        <time>2015-04-13T09:06:54.000Z</time>
      </trkpt>
      <trkpt lat="48.70266" lon="1.74669">
        <ele>162.6</ele>
        <time>2015-04-13T09:06:58.000Z</time>
      </trkpt>
      <trkpt lat="48.70274" lon="1.74665">
        <ele>162.8</ele>
        <time>2015-04-13T09:07:03.000Z</time>
      </trkpt>
      <trkpt lat="48.70283" lon="1.74662">
        <ele>162.9</ele>
        <time>2015-04-13T09:07:09.000Z</time>
      </trkpt>
      <trkpt lat="48.70286" lon="1.7466">
        <ele>162.8</ele>
        <time>2015-04-13T09:07:11.000Z</time>
      </trkpt>
      <trkpt lat="48.70298" lon="1.74654">
        <ele>162.9</ele>
        <time>2015-04-13T09:07:18.000Z</time>
      </trkpt>
      <trkpt lat="48.70306" lon="1.74649">
        <ele>163.1</ele>
        <time>2015-04-13T09:07:25.000Z</time>
      </trkpt>
      <trkpt lat="48.70307" lon="1.74648">
        <ele>163.1</ele>
        <time>2015-04-13T09:07:27.000Z</time>
      </trkpt>
      <trkpt lat="48.70307" lon="1.74638">
        <ele>163.1</ele>
        <time>2015-04-13T09:07:33.000Z</time>
      </trkpt>
      <trkpt lat="48.70306" lon="1.74627">
        <ele>163</ele>
        <time>2015-04-13T09:07:38.000Z</time>
      </trkpt>
      <trkpt lat="48.70306" lon="1.74626">
        <ele>163</ele>
        <time>2015-04-13T09:07:39.000Z</time>
      </trkpt>
      <trkpt lat="48.70302" lon="1.74615">
        <ele>162.9</ele>
        <time>2015-04-13T09:07:43.000Z</time>
      </trkpt>
      <trkpt lat="48.70299" lon="1.74596">
        <ele>162.6</ele>
        <time>2015-04-13T09:07:51.000Z</time>
      </trkpt>
      <trkpt lat="48.70298" lon="1.74588">
        <ele>162.5</ele>
        <time>2015-04-13T09:07:55.000Z</time>
      </trkpt>
      <trkpt lat="48.70297" lon="1.74578">
        <ele>162.4</ele>
        <time>2015-04-13T09:08:00.000Z</time>
      </trkpt>
      <trkpt lat="48.70292" lon="1.74564">
        <ele>162.4</ele>
        <time>2015-04-13T09:08:07.000Z</time>
      </trkpt>
      <trkpt lat="48.70284" lon="1.74546">
        <ele>162.2</ele>
        <time>2015-04-13T09:08:16.000Z</time>
      </trkpt>
      <trkpt lat="48.70284" lon="1.74544">
        <ele>162.2</ele>
        <time>2015-04-13T09:08:17.000Z</time>
      </trkpt>
      <trkpt lat="48.70279" lon="1.74525">
        <ele>162.1</ele>
        <time>2015-04-13T09:08:25.000Z</time>
      </trkpt>
      <trkpt lat="48.70276" lon="1.74507">
        <ele>162.7</ele>
        <time>2015-04-13T09:08:33.000Z</time>
      </trkpt>
      <trkpt lat="48.70273" lon="1.74493">
        <ele>163</ele>
        <time>2015-04-13T09:08:40.000Z</time>
      </trkpt>
      <trkpt lat="48.70273" lon="1.74479">
        <ele>163.1</ele>
        <time>2015-04-13T09:08:47.000Z</time>
      </trkpt>
      <trkpt lat="48.70275" lon="1.7447">
        <ele>163.2</ele>
        <time>2015-04-13T09:08:52.000Z</time>
      </trkpt>
      <trkpt lat="48.70275" lon="1.74466">
        <ele>163.3</ele>
        <time>2015-04-13T09:08:58.000Z</time>
      </trkpt>
      <trkpt lat="48.70279" lon="1.74444">
        <ele>164</ele>
        <time>2015-04-13T09:09:46.000Z</time>
      </trkpt>
      <trkpt lat="48.70277" lon="1.74428">
        <ele>164</ele>
        <time>2015-04-13T09:09:52.000Z</time>
      </trkpt>
      <trkpt lat="48.70273" lon="1.74411">
        <ele>164.4</ele>
        <time>2015-04-13T09:09:58.000Z</time>
      </trkpt>
      <trkpt lat="48.70271" lon="1.74399">
        <ele>164.9</ele>
        <time>2015-04-13T09:10:03.000Z</time>
      </trkpt>
      <trkpt lat="48.70268" lon="1.74383">
        <ele>165.6</ele>
        <time>2015-04-13T09:10:10.000Z</time>
      </trkpt>
      <trkpt lat="48.70265" lon="1.74369">
        <ele>166.2</ele>
        <time>2015-04-13T09:10:17.000Z</time>
      </trkpt>
      <trkpt lat="48.70263" lon="1.74356">
        <ele>166.6</ele>
        <time>2015-04-13T09:10:23.000Z</time>
      </trkpt>
      <trkpt lat="48.70261" lon="1.74346">
        <ele>166.8</ele>
        <time>2015-04-13T09:10:28.000Z</time>
      </trkpt>
      <trkpt lat="48.7026" lon="1.74331">
        <ele>167</ele>
        <time>2015-04-13T09:10:35.000Z</time>
      </trkpt>
      <trkpt lat="48.70259" lon="1.74325">
        <ele>167.2</ele>
        <time>2015-04-13T09:10:38.000Z</time>
      </trkpt>
      <trkpt lat="48.70259" lon="1.74321">
        <ele>167.3</ele>
        <time>2015-04-13T09:10:40.000Z</time>
      </trkpt>
      <trkpt lat="48.70258" lon="1.74312">
        <ele>167.6</ele>
        <time>2015-04-13T09:10:44.000Z</time>
      </trkpt>
      <trkpt lat="48.70255" lon="1.74297">
        <ele>167.9</ele>
        <time>2015-04-13T09:10:51.000Z</time>
      </trkpt>
      <trkpt lat="48.70253" lon="1.74293">
        <ele>167.9</ele>
        <time>2015-04-13T09:10:53.000Z</time>
      </trkpt>
      <trkpt lat="48.7025" lon="1.74281">
        <ele>168</ele>
        <time>2015-04-13T09:10:59.000Z</time>
      </trkpt>
      <trkpt lat="48.70246" lon="1.7427">
        <ele>168.1</ele>
        <time>2015-04-13T09:11:04.000Z</time>
      </trkpt>
      <trkpt lat="48.70245" lon="1.74264">
        <ele>168.2</ele>
        <time>2015-04-13T09:11:07.000Z</time>
      </trkpt>
      <trkpt lat="48.70242" lon="1.74254">
        <ele>168.3</ele>
        <time>2015-04-13T09:11:12.000Z</time>
      </trkpt>
      <trkpt lat="48.70237" lon="1.74244">
        <ele>168.6</ele>
        <time>2015-04-13T09:11:18.000Z</time>
      </trkpt>
      <trkpt lat="48.70227" lon="1.74233">
        <ele>168.9</ele>
        <time>2015-04-13T09:11:26.000Z</time>
      </trkpt>
      <trkpt lat="48.70218" lon="1.74223">
        <ele>169</ele>
        <time>2015-04-13T09:11:33.000Z</time>
      </trkpt>
      <trkpt lat="48.70215" lon="1.7422">
        <ele>169</ele>
        <time>2015-04-13T09:11:35.000Z</time>
      </trkpt>
      <trkpt lat="48.70209" lon="1.74212">
        <ele>169</ele>
        <time>2015-04-13T09:11:40.000Z</time>
      </trkpt>
      <trkpt lat="48.70204" lon="1.74196">
        <ele>169</ele>
        <time>2015-04-13T09:11:47.000Z</time>
      </trkpt>
      <trkpt lat="48.70201" lon="1.74183">
        <ele>169.4</ele>
        <time>2015-04-13T09:11:53.000Z</time>
      </trkpt>
      <trkpt lat="48.70199" lon="1.74168">
        <ele>169.9</ele>
        <time>2015-04-13T09:12:00.000Z</time>
      </trkpt>
      <trkpt lat="48.70197" lon="1.74152">
        <ele>170</ele>
        <time>2015-04-13T09:12:07.000Z</time>
      </trkpt>
      <trkpt lat="48.70193" lon="1.74135">
        <ele>170</ele>
        <time>2015-04-13T09:12:14.000Z</time>
      </trkpt>
      <trkpt lat="48.70191" lon="1.74127">
        <ele>170</ele>
        <time>2015-04-13T09:12:20.000Z</time>
      </trkpt>
      <trkpt lat="48.70188" lon="1.74116">
        <ele>170</ele>
        <time>2015-04-13T09:12:29.000Z</time>
      </trkpt>
      <trkpt lat="48.70185" lon="1.741">
        <ele>170</ele>
        <time>2015-04-13T09:12:36.000Z</time>
      </trkpt>
      <trkpt lat="48.70184" lon="1.74098">
        <ele>170</ele>
        <time>2015-04-13T09:12:37.000Z</time>
      </trkpt>
      <trkpt lat="48.70181" lon="1.74089">
        <ele>170</ele>
        <time>2015-04-13T09:12:41.000Z</time>
      </trkpt>
      <trkpt lat="48.7018" lon="1.74084">
        <ele>170</ele>
        <time>2015-04-13T09:12:43.000Z</time>
      </trkpt>
      <trkpt lat="48.70175" lon="1.74073">
        <ele>170</ele>
        <time>2015-04-13T09:12:48.000Z</time>
      </trkpt>
      <trkpt lat="48.70174" lon="1.74069">
        <ele>170</ele>
        <time>2015-04-13T09:12:50.000Z</time>
      </trkpt>
      <trkpt lat="48.70173" lon="1.74057">
        <ele>170</ele>
        <time>2015-04-13T09:12:56.000Z</time>
      </trkpt>
      <trkpt lat="48.70169" lon="1.74048">
        <ele>170</ele>
        <time>2015-04-13T09:13:02.000Z</time>
      </trkpt>
      <trkpt lat="48.70161" lon="1.74049">
        <ele>170</ele>
        <time>2015-04-13T09:13:10.000Z</time>
      </trkpt>
      <trkpt lat="48.70154" lon="1.74053">
        <ele>170</ele>
        <time>2015-04-13T09:13:16.000Z</time>
      </trkpt>
      <trkpt lat="48.70144" lon="1.74058">
        <ele>170</ele>
        <time>2015-04-13T09:13:23.000Z</time>
      </trkpt>
      <trkpt lat="48.70136" lon="1.7406">
        <ele>169.9</ele>
        <time>2015-04-13T09:13:28.000Z</time>
      </trkpt>
      <trkpt lat="48.70122" lon="1.74068">
        <ele>169.4</ele>
        <time>2015-04-13T09:13:37.000Z</time>
      </trkpt>
      <trkpt lat="48.70115" lon="1.74071">
        <ele>169.1</ele>
        <time>2015-04-13T09:13:42.000Z</time>
      </trkpt>
      <trkpt lat="48.70102" lon="1.74076">
        <ele>168.7</ele>
        <time>2015-04-13T09:13:50.000Z</time>
      </trkpt>
      <trkpt lat="48.70095" lon="1.7408">
        <ele>168.5</ele>
        <time>2015-04-13T09:13:55.000Z</time>
      </trkpt>
      <trkpt lat="48.70084" lon="1.74084">
        <ele>168</ele>
        <time>2015-04-13T09:14:02.000Z</time>
      </trkpt>
      <trkpt lat="48.70074" lon="1.74089">
        <ele>167.9</ele>
        <time>2015-04-13T09:14:09.000Z</time>
      </trkpt>
      <trkpt lat="48.70064" lon="1.74094">
        <ele>167.7</ele>
        <time>2015-04-13T09:14:15.000Z</time>
      </trkpt>
      <trkpt lat="48.70052" lon="1.74099">
        <ele>167.3</ele>
        <time>2015-04-13T09:14:23.000Z</time>
      </trkpt>
      <trkpt lat="48.70048" lon="1.74102">
        <ele>167</ele>
        <time>2015-04-13T09:14:26.000Z</time>
      </trkpt>
      <trkpt lat="48.70038" lon="1.74107">
        <ele>166.4</ele>
        <time>2015-04-13T09:14:32.000Z</time>
      </trkpt>
      <trkpt lat="48.70032" lon="1.7411">
        <ele>166.2</ele>
        <time>2015-04-13T09:14:36.000Z</time>
      </trkpt>
      <trkpt lat="48.70023" lon="1.74115">
        <ele>165.5</ele>
        <time>2015-04-13T09:14:42.000Z</time>
      </trkpt>
      <trkpt lat="48.70013" lon="1.74122">
        <ele>164.5</ele>
        <time>2015-04-13T09:14:48.000Z</time>
      </trkpt>
      <trkpt lat="48.70003" lon="1.74126">
        <ele>163.7</ele>
        <time>2015-04-13T09:14:54.000Z</time>
      </trkpt>
      <trkpt lat="48.69992" lon="1.7413">
        <ele>162.7</ele>
        <time>2015-04-13T09:15:00.000Z</time>
      </trkpt>
      <trkpt lat="48.69981" lon="1.74133">
        <ele>161.7</ele>
        <time>2015-04-13T09:15:05.000Z</time>
      </trkpt>
      <trkpt lat="48.69971" lon="1.74138">
        <ele>160.9</ele>
        <time>2015-04-13T09:15:11.000Z</time>
      </trkpt>
      <trkpt lat="48.69961" lon="1.74141">
        <ele>160.6</ele>
        <time>2015-04-13T09:15:17.000Z</time>
      </trkpt>
      <trkpt lat="48.69949" lon="1.74146">
        <ele>160.2</ele>
        <time>2015-04-13T09:15:24.000Z</time>
      </trkpt>
      <trkpt lat="48.69937" lon="1.74151">
        <ele>159.7</ele>
        <time>2015-04-13T09:15:32.000Z</time>
      </trkpt>
      <trkpt lat="48.69925" lon="1.74155">
        <ele>159.3</ele>
        <time>2015-04-13T09:15:39.000Z</time>
      </trkpt>
      <trkpt lat="48.69912" lon="1.74163">
        <ele>159</ele>
        <time>2015-04-13T09:15:47.000Z</time>
      </trkpt>
      <trkpt lat="48.69902" lon="1.7417">
        <ele>159.1</ele>
        <time>2015-04-13T09:15:54.000Z</time>
      </trkpt>
      <trkpt lat="48.69897" lon="1.74175">
        <ele>159.1</ele>
        <time>2015-04-13T09:16:01.000Z</time>
      </trkpt>
      <trkpt lat="48.69891" lon="1.74175">
        <ele>159</ele>
        <time>2015-04-13T09:16:08.000Z</time>
      </trkpt>
      <trkpt lat="48.6989" lon="1.74173">
        <ele>159</ele>
        <time>2015-04-13T09:16:09.000Z</time>
      </trkpt>
      <trkpt lat="48.69886" lon="1.74157">
        <ele>159</ele>
        <time>2015-04-13T09:16:17.000Z</time>
      </trkpt>
      <trkpt lat="48.69883" lon="1.74147">
        <ele>159</ele>
        <time>2015-04-13T09:16:23.000Z</time>
      </trkpt>
      <trkpt lat="48.69881" lon="1.74132">
        <ele>159</ele>
        <time>2015-04-13T09:16:29.000Z</time>
      </trkpt>
      <trkpt lat="48.69875" lon="1.74116">
        <ele>159</ele>
        <time>2015-04-13T09:16:36.000Z</time>
      </trkpt>
      <trkpt lat="48.69873" lon="1.74113">
        <ele>159</ele>
        <time>2015-04-13T09:16:37.000Z</time>
      </trkpt>
      <trkpt lat="48.6987" lon="1.741">
        <ele>159.3</ele>
        <time>2015-04-13T09:16:43.000Z</time>
      </trkpt>
      <trkpt lat="48.69867" lon="1.74084">
        <ele>159.8</ele>
        <time>2015-04-13T09:16:50.000Z</time>
      </trkpt>
      <trkpt lat="48.69863" lon="1.74071">
        <ele>160</ele>
        <time>2015-04-13T09:16:56.000Z</time>
      </trkpt>
      <trkpt lat="48.69861" lon="1.74065">
        <ele>160</ele>
        <time>2015-04-13T09:16:59.000Z</time>
      </trkpt>
      <trkpt lat="48.69857" lon="1.74047">
        <ele>160.5</ele>
        <time>2015-04-13T09:17:07.000Z</time>
      </trkpt>
      <trkpt lat="48.69856" lon="1.74041">
        <ele>160.7</ele>
        <time>2015-04-13T09:17:09.000Z</time>
      </trkpt>
      <trkpt lat="48.69851" lon="1.74024">
        <ele>161.5</ele>
        <time>2015-04-13T09:17:18.000Z</time>
      </trkpt>
      <trkpt lat="48.69847" lon="1.74007">
        <ele>161.9</ele>
        <time>2015-04-13T09:17:26.000Z</time>
      </trkpt>
      <trkpt lat="48.69844" lon="1.74002">
        <ele>162</ele>
        <time>2015-04-13T09:17:29.000Z</time>
      </trkpt>
      <trkpt lat="48.69842" lon="1.74001">
        <ele>162</ele>
        <time>2015-04-13T09:17:34.000Z</time>
      </trkpt>
      <trkpt lat="48.69839" lon="1.74002">
        <ele>162</ele>
        <time>2015-04-13T09:17:37.000Z</time>
      </trkpt>
      <trkpt lat="48.69834" lon="1.74004">
        <ele>162</ele>
        <time>2015-04-13T09:17:41.000Z</time>
      </trkpt>
      <trkpt lat="48.69824" lon="1.7401">
        <ele>162.2</ele>
        <time>2015-04-13T09:17:49.000Z</time>
      </trkpt>
      <trkpt lat="48.69817" lon="1.74015">
        <ele>162.3</ele>
        <time>2015-04-13T09:17:56.000Z</time>
      </trkpt>
      <trkpt lat="48.69814" lon="1.74016">
        <ele>162.3</ele>
        <time>2015-04-13T09:18:02.000Z</time>
      </trkpt>
      <trkpt lat="48.69807" lon="1.74024">
        <ele>162.1</ele>
        <time>2015-04-13T09:18:52.000Z</time>
      </trkpt>
      <trkpt lat="48.69804" lon="1.74029">
        <ele>162.1</ele>
        <time>2015-04-13T09:18:58.000Z</time>
      </trkpt>
      <trkpt lat="48.69795" lon="1.74034">
        <ele>162.3</ele>
        <time>2015-04-13T09:19:07.000Z</time>
      </trkpt>
      <trkpt lat="48.69794" lon="1.74034">
        <ele>162.3</ele>
        <time>2015-04-13T09:19:08.000Z</time>
      </trkpt>
      <trkpt lat="48.69786" lon="1.74042">
        <ele>162.3</ele>
        <time>2015-04-13T09:19:15.000Z</time>
      </trkpt>
      <trkpt lat="48.69782" lon="1.7405">
        <ele>162.2</ele>
        <time>2015-04-13T09:19:21.000Z</time>
      </trkpt>
      <trkpt lat="48.69778" lon="1.74058">
        <ele>162</ele>
        <time>2015-04-13T09:19:27.000Z</time>
      </trkpt>
      <trkpt lat="48.69776" lon="1.7406">
        <ele>162.1</ele>
        <time>2015-04-13T09:19:29.000Z</time>
      </trkpt>
      <trkpt lat="48.69771" lon="1.74066">
        <ele>162.3</ele>
        <time>2015-04-13T09:19:34.000Z</time>
      </trkpt>
      <trkpt lat="48.69761" lon="1.74069">
        <ele>162.6</ele>
        <time>2015-04-13T09:19:42.000Z</time>
      </trkpt>
      <trkpt lat="48.69753" lon="1.74075">
        <ele>162.9</ele>
        <time>2015-04-13T09:19:49.000Z</time>
      </trkpt>
      <trkpt lat="48.69745" lon="1.74083">
        <ele>163.2</ele>
        <time>2015-04-13T09:19:56.000Z</time>
      </trkpt>
      <trkpt lat="48.69738" lon="1.74087">
        <ele>163.4</ele>
        <time>2015-04-13T09:20:02.000Z</time>
      </trkpt>
      <trkpt lat="48.69736" lon="1.74093">
        <ele>163.5</ele>
        <time>2015-04-13T09:20:06.000Z</time>
      </trkpt>
      <trkpt lat="48.69736" lon="1.74108">
        <ele>163.5</ele>
        <time>2015-04-13T09:20:15.000Z</time>
      </trkpt>
      <trkpt lat="48.69732" lon="1.74116">
        <ele>163.6</ele>
        <time>2015-04-13T09:20:22.000Z</time>
      </trkpt>
      <trkpt lat="48.69727" lon="1.74129">
        <ele>163.8</ele>
        <time>2015-04-13T09:20:29.000Z</time>
      </trkpt>
      <trkpt lat="48.69719" lon="1.74139">
        <ele>164.2</ele>
        <time>2015-04-13T09:20:36.000Z</time>
      </trkpt>
      <trkpt lat="48.69709" lon="1.74142">
        <ele>164.9</ele>
        <time>2015-04-13T09:20:43.000Z</time>
      </trkpt>
      <trkpt lat="48.69696" lon="1.74144">
        <ele>165.7</ele>
        <time>2015-04-13T09:20:52.000Z</time>
      </trkpt>
      <trkpt lat="48.69692" lon="1.74145">
        <ele>165.9</ele>
        <time>2015-04-13T09:20:56.000Z</time>
      </trkpt>
      <trkpt lat="48.69686" lon="1.74148">
        <ele>166</ele>
        <time>2015-04-13T09:21:01.000Z</time>
      </trkpt>
      <trkpt lat="48.6968" lon="1.74151">
        <ele>166.1</ele>
        <time>2015-04-13T09:21:06.000Z</time>
      </trkpt>
      <trkpt lat="48.69678" lon="1.74151">
        <ele>166.1</ele>
        <time>2015-04-13T09:21:08.000Z</time>
      </trkpt>
      <trkpt lat="48.69673" lon="1.74153">
        <ele>166.3</ele>
        <time>2015-04-13T09:21:14.000Z</time>
      </trkpt>
      <trkpt lat="48.69671" lon="1.74153">
        <ele>166.3</ele>
        <time>2015-04-13T09:21:15.000Z</time>
      </trkpt>
      <trkpt lat="48.69658" lon="1.74147">
        <ele>167.1</ele>
        <time>2015-04-13T09:21:25.000Z</time>
      </trkpt>
      <trkpt lat="48.69656" lon="1.74142">
        <ele>167.3</ele>
        <time>2015-04-13T09:21:28.000Z</time>
      </trkpt>
      <trkpt lat="48.69654" lon="1.74134">
        <ele>167.4</ele>
        <time>2015-04-13T09:21:32.000Z</time>
      </trkpt>
      <trkpt lat="48.6965" lon="1.74118">
        <ele>167.6</ele>
        <time>2015-04-13T09:21:39.000Z</time>
      </trkpt>
      <trkpt lat="48.69647" lon="1.74103">
        <ele>167.7</ele>
        <time>2015-04-13T09:21:46.000Z</time>
      </trkpt>
      <trkpt lat="48.69645" lon="1.7409">
        <ele>167.8</ele>
        <time>2015-04-13T09:21:52.000Z</time>
      </trkpt>
      <trkpt lat="48.69639" lon="1.74075">
        <ele>168</ele>
        <time>2015-04-13T09:22:00.000Z</time>
      </trkpt>
      <trkpt lat="48.69635" lon="1.74063">
        <ele>168.1</ele>
        <time>2015-04-13T09:22:06.000Z</time>
      </trkpt>
      <trkpt lat="48.69634" lon="1.74048">
        <ele>168.2</ele>
        <time>2015-04-13T09:22:14.000Z</time>
      </trkpt>
      <trkpt lat="48.69629" lon="1.74034">
        <ele>168.3</ele>
        <time>2015-04-13T09:22:21.000Z</time>
      </trkpt>
      <trkpt lat="48.69628" lon="1.74021">
        <ele>168.4</ele>
        <time>2015-04-13T09:22:28.000Z</time>
      </trkpt>
      <trkpt lat="48.69627" lon="1.74015">
        <ele>168.4</ele>
        <time>2015-04-13T09:22:31.000Z</time>
      </trkpt>
      <trkpt lat="48.69621" lon="1.73997">
        <ele>168.6</ele>
        <time>2015-04-13T09:22:40.000Z</time>
      </trkpt>
      <trkpt lat="48.69617" lon="1.73992">
        <ele>168.8</ele>
        <time>2015-04-13T09:22:44.000Z</time>
      </trkpt>
      <trkpt lat="48.69615" lon="1.73987">
        <ele>168.9</ele>
        <time>2015-04-13T09:22:50.000Z</time>
      </trkpt>
      <trkpt lat="48.69618" lon="1.73982">
        <ele>168.8</ele>
        <time>2015-04-13T09:22:53.000Z</time>
      </trkpt>
      <trkpt lat="48.69625" lon="1.73968">
        <ele>168.5</ele>
        <time>2015-04-13T09:23:00.000Z</time>
      </trkpt>
      <trkpt lat="48.6963" lon="1.73958">
        <ele>168.3</ele>
        <time>2015-04-13T09:23:04.000Z</time>
      </trkpt>
      <trkpt lat="48.69639" lon="1.73939">
        <ele>168.2</ele>
        <time>2015-04-13T09:23:13.000Z</time>
      </trkpt>
      <trkpt lat="48.69646" lon="1.73922">
        <ele>168.5</ele>
        <time>2015-04-13T09:23:22.000Z</time>
      </trkpt>
      <trkpt lat="48.69652" lon="1.7391">
        <ele>168.5</ele>
        <time>2015-04-13T09:23:29.000Z</time>
      </trkpt>
      <trkpt lat="48.69653" lon="1.73908">
        <ele>168.5</ele>
        <time>2015-04-13T09:23:30.000Z</time>
      </trkpt>
      <trkpt lat="48.6966" lon="1.73895">
        <ele>168.3</ele>
        <time>2015-04-13T09:23:37.000Z</time>
      </trkpt>
      <trkpt lat="48.69664" lon="1.73887">
        <ele>168.1</ele>
        <time>2015-04-13T09:23:42.000Z</time>
      </trkpt>
      <trkpt lat="48.69668" lon="1.73879">
        <ele>168</ele>
        <time>2015-04-13T09:23:46.000Z</time>
      </trkpt>
      <trkpt lat="48.69674" lon="1.73866">
        <ele>168</ele>
        <time>2015-04-13T09:23:53.000Z</time>
      </trkpt>
      <trkpt lat="48.6968" lon="1.73851">
        <ele>168.2</ele>
        <time>2015-04-13T09:24:01.000Z</time>
      </trkpt>
      <trkpt lat="48.69687" lon="1.73839">
        <ele>168.2</ele>
        <time>2015-04-13T09:24:07.000Z</time>
      </trkpt>
      <trkpt lat="48.69692" lon="1.73828">
        <ele>168.3</ele>
        <time>2015-04-13T09:24:13.000Z</time>
      </trkpt>
      <trkpt lat="48.697" lon="1.73813">
        <ele>168.7</ele>
        <time>2015-04-13T09:24:22.000Z</time>
      </trkpt>
      <trkpt lat="48.69701" lon="1.73801">
        <ele>169</ele>
        <time>2015-04-13T09:24:28.000Z</time>
      </trkpt>
      <trkpt lat="48.69707" lon="1.73789">
        <ele>169</ele>
        <time>2015-04-13T09:24:34.000Z</time>
      </trkpt>
      <trkpt lat="48.69715" lon="1.73777">
        <ele>169</ele>
        <time>2015-04-13T09:24:42.000Z</time>
      </trkpt>
      <trkpt lat="48.69723" lon="1.73765">
        <ele>169</ele>
        <time>2015-04-13T09:24:49.000Z</time>
      </trkpt>
      <trkpt lat="48.69728" lon="1.73755">
        <ele>169</ele>
        <time>2015-04-13T09:24:55.000Z</time>
      </trkpt>
      <trkpt lat="48.69734" lon="1.73742">
        <ele>169</ele>
        <time>2015-04-13T09:25:03.000Z</time>
      </trkpt>
      <trkpt lat="48.69738" lon="1.73732">
        <ele>169</ele>
        <time>2015-04-13T09:25:09.000Z</time>
      </trkpt>
      <trkpt lat="48.69745" lon="1.73722">
        <ele>169</ele>
        <time>2015-04-13T09:25:16.000Z</time>
      </trkpt>
      <trkpt lat="48.69753" lon="1.73706">
        <ele>169</ele>
        <time>2015-04-13T09:25:25.000Z</time>
      </trkpt>
      <trkpt lat="48.69759" lon="1.73695">
        <ele>169</ele>
        <time>2015-04-13T09:25:32.000Z</time>
      </trkpt>
      <trkpt lat="48.6976" lon="1.73692">
        <ele>169</ele>
        <time>2015-04-13T09:25:34.000Z</time>
      </trkpt>
      <trkpt lat="48.69761" lon="1.73688">
        <ele>169</ele>
        <time>2015-04-13T09:25:37.000Z</time>
      </trkpt>
      <trkpt lat="48.69756" lon="1.73678">
        <ele>169</ele>
        <time>2015-04-13T09:25:45.000Z</time>
      </trkpt>
      <trkpt lat="48.69747" lon="1.73677">
        <ele>169.1</ele>
        <time>2015-04-13T09:25:52.000Z</time>
      </trkpt>
      <trkpt lat="48.69738" lon="1.73677">
        <ele>169.4</ele>
        <time>2015-04-13T09:25:59.000Z</time>
      </trkpt>
      <trkpt lat="48.69729" lon="1.73677">
        <ele>169.8</ele>
        <time>2015-04-13T09:26:06.000Z</time>
      </trkpt>
      <trkpt lat="48.69718" lon="1.73677">
        <ele>170</ele>
        <time>2015-04-13T09:26:14.000Z</time>
      </trkpt>
      <trkpt lat="48.69705" lon="1.73676">
        <ele>170</ele>
        <time>2015-04-13T09:26:23.000Z</time>
      </trkpt>
      <trkpt lat="48.69695" lon="1.73675">
        <ele>170</ele>
        <time>2015-04-13T09:26:29.000Z</time>
      </trkpt>
      <trkpt lat="48.69684" lon="1.73674">
        <ele>170.4</ele>
        <time>2015-04-13T09:26:38.000Z</time>
      </trkpt>
      <trkpt lat="48.69675" lon="1.73672">
        <ele>170.7</ele>
        <time>2015-04-13T09:26:45.000Z</time>
      </trkpt>
      <trkpt lat="48.69663" lon="1.73671">
        <ele>171</ele>
        <time>2015-04-13T09:26:54.000Z</time>
      </trkpt>
      <trkpt lat="48.69653" lon="1.73671">
        <ele>171</ele>
        <time>2015-04-13T09:27:01.000Z</time>
      </trkpt>
      <trkpt lat="48.69643" lon="1.7367">
        <ele>171</ele>
        <time>2015-04-13T09:27:09.000Z</time>
      </trkpt>
      <trkpt lat="48.69634" lon="1.73669">
        <ele>171</ele>
        <time>2015-04-13T09:27:16.000Z</time>
      </trkpt>
      <trkpt lat="48.69625" lon="1.73667">
        <ele>171</ele>
        <time>2015-04-13T09:27:23.000Z</time>
      </trkpt>
      <trkpt lat="48.69618" lon="1.73661">
        <ele>171</ele>
        <time>2015-04-13T09:27:30.000Z</time>
      </trkpt>
      <trkpt lat="48.69615" lon="1.73661">
        <ele>171</ele>
        <time>2015-04-13T09:27:32.000Z</time>
      </trkpt>
      <trkpt lat="48.69603" lon="1.73656">
        <ele>170.7</ele>
        <time>2015-04-13T09:27:41.000Z</time>
      </trkpt>
      <trkpt lat="48.69592" lon="1.73655">
        <ele>170.3</ele>
        <time>2015-04-13T09:27:49.000Z</time>
      </trkpt>
      <trkpt lat="48.69584" lon="1.73656">
        <ele>170</ele>
        <time>2015-04-13T09:27:56.000Z</time>
      </trkpt>
      <trkpt lat="48.69578" lon="1.73654">
        <ele>169.9</ele>
        <time>2015-04-13T09:28:00.000Z</time>
      </trkpt>
      <trkpt lat="48.69564" lon="1.73652">
        <ele>169.6</ele>
        <time>2015-04-13T09:28:10.000Z</time>
      </trkpt>
      <trkpt lat="48.6956" lon="1.73651">
        <ele>169.5</ele>
        <time>2015-04-13T09:28:13.000Z</time>
      </trkpt>
      <trkpt lat="48.69551" lon="1.73652">
        <ele>169.1</ele>
        <time>2015-04-13T09:28:19.000Z</time>
      </trkpt>
      <trkpt lat="48.69548" lon="1.73651">
        <ele>168.9</ele>
        <time>2015-04-13T09:28:21.000Z</time>
      </trkpt>
      <trkpt lat="48.69541" lon="1.7365">
        <ele>168.3</ele>
        <time>2015-04-13T09:28:26.000Z</time>
      </trkpt>
      <trkpt lat="48.69527" lon="1.73651">
        <ele>167.4</ele>
        <time>2015-04-13T09:28:35.000Z</time>
      </trkpt>
      <trkpt lat="48.69519" lon="1.73649">
        <ele>166.4</ele>
        <time>2015-04-13T09:28:41.000Z</time>
      </trkpt>
      <trkpt lat="48.69511" lon="1.73649">
        <ele>165.6</ele>
        <time>2015-04-13T09:28:47.000Z</time>
      </trkpt>
      <trkpt lat="48.69504" lon="1.73647">
        <ele>164.7</ele>
        <time>2015-04-13T09:28:51.000Z</time>
      </trkpt>
      <trkpt lat="48.69494" lon="1.73645">
        <ele>163.8</ele>
        <time>2015-04-13T09:28:57.000Z</time>
      </trkpt>
      <trkpt lat="48.69486" lon="1.73644">
        <ele>163.1</ele>
        <time>2015-04-13T09:29:02.000Z</time>
      </trkpt>
      <trkpt lat="48.69474" lon="1.73643">
        <ele>162.1</ele>
        <time>2015-04-13T09:29:10.000Z</time>
      </trkpt>
      <trkpt lat="48.69461" lon="1.73642">
        <ele>161.2</ele>
        <time>2015-04-13T09:29:18.000Z</time>
      </trkpt>
      <trkpt lat="48.69449" lon="1.73642">
        <ele>160.3</ele>
        <time>2015-04-13T09:29:26.000Z</time>
      </trkpt>
      <trkpt lat="48.6944" lon="1.73642">
        <ele>160</ele>
        <time>2015-04-13T09:29:32.000Z</time>
      </trkpt>
      <trkpt lat="48.69433" lon="1.73641">
        <ele>160</ele>
        <time>2015-04-13T09:29:36.000Z</time>
      </trkpt>
      <trkpt lat="48.69427" lon="1.7364">
        <ele>160</ele>
        <time>2015-04-13T09:29:40.000Z</time>
      </trkpt>
      <trkpt lat="48.69415" lon="1.7364">
        <ele>160.1</ele>
        <time>2015-04-13T09:29:47.000Z</time>
      </trkpt>
      <trkpt lat="48.69405" lon="1.73639">
        <ele>160.4</ele>
        <time>2015-04-13T09:29:53.000Z</time>
      </trkpt>
      <trkpt lat="48.69396" lon="1.73639">
        <ele>160.7</ele>
        <time>2015-04-13T09:30:00.000Z</time>
      </trkpt>
      <trkpt lat="48.69391" lon="1.73639">
        <ele>160.9</ele>
        <time>2015-04-13T09:30:03.000Z</time>
      </trkpt>
      <trkpt lat="48.69379" lon="1.73637">
        <ele>161.4</ele>
        <time>2015-04-13T09:30:11.000Z</time>
      </trkpt>
      <trkpt lat="48.69368" lon="1.73635">
        <ele>161.9</ele>
        <time>2015-04-13T09:30:18.000Z</time>
      </trkpt>
      <trkpt lat="48.69352" lon="1.73633">
        <ele>162.9</ele>
        <time>2015-04-13T09:30:28.000Z</time>
      </trkpt>
      <trkpt lat="48.69343" lon="1.73633">
        <ele>163.5</ele>
        <time>2015-04-13T09:30:33.000Z</time>
      </trkpt>
      <trkpt lat="48.69336" lon="1.73631">
        <ele>164.1</ele>
        <time>2015-04-13T09:30:38.000Z</time>
      </trkpt>
      <trkpt lat="48.69327" lon="1.73632">
        <ele>164.4</ele>
        <time>2015-04-13T09:30:45.000Z</time>
      </trkpt>
      <trkpt lat="48.69324" lon="1.73633">
        <ele>164.4</ele>
        <time>2015-04-13T09:30:47.000Z</time>
      </trkpt>
      <trkpt lat="48.69307" lon="1.73632">
        <ele>164.7</ele>
        <time>2015-04-13T09:30:59.000Z</time>
      </trkpt>
      <trkpt lat="48.69293" lon="1.7363">
        <ele>165.3</ele>
        <time>2015-04-13T09:31:08.000Z</time>
      </trkpt>
      <trkpt lat="48.69282" lon="1.73627">
        <ele>165.7</ele>
        <time>2015-04-13T09:31:15.000Z</time>
      </trkpt>
      <trkpt lat="48.69272" lon="1.73626">
        <ele>166.2</ele>
        <time>2015-04-13T09:31:21.000Z</time>
      </trkpt>
      <trkpt lat="48.69263" lon="1.73624">
        <ele>166.8</ele>
        <time>2015-04-13T09:31:28.000Z</time>
      </trkpt>
      <trkpt lat="48.69252" lon="1.73623">
        <ele>167.5</ele>
        <time>2015-04-13T09:31:36.000Z</time>
      </trkpt>
      <trkpt lat="48.69243" lon="1.73622">
        <ele>168.1</ele>
        <time>2015-04-13T09:31:42.000Z</time>
      </trkpt>
      <trkpt lat="48.69238" lon="1.73622">
        <ele>168.5</ele>
        <time>2015-04-13T09:31:45.000Z</time>
      </trkpt>
      <trkpt lat="48.69228" lon="1.73621">
        <ele>169.2</ele>
        <time>2015-04-13T09:31:52.000Z</time>
      </trkpt>
      <trkpt lat="48.69215" lon="1.7362">
        <ele>169.8</ele>
        <time>2015-04-13T09:32:02.000Z</time>
      </trkpt>
      <trkpt lat="48.69205" lon="1.73617">
        <ele>169.9</ele>
        <time>2015-04-13T09:32:09.000Z</time>
      </trkpt>
      <trkpt lat="48.69197" lon="1.73615">
        <ele>170</ele>
        <time>2015-04-13T09:32:15.000Z</time>
      </trkpt>
      <trkpt lat="48.6919" lon="1.73615">
        <ele>170</ele>
        <time>2015-04-13T09:32:20.000Z</time>
      </trkpt>
      <trkpt lat="48.69181" lon="1.73612">
        <ele>170</ele>
        <time>2015-04-13T09:32:26.000Z</time>
      </trkpt>
      <trkpt lat="48.69172" lon="1.73611">
        <ele>170</ele>
        <time>2015-04-13T09:32:32.000Z</time>
      </trkpt>
      <trkpt lat="48.69167" lon="1.73611">
        <ele>170</ele>
        <time>2015-04-13T09:32:35.000Z</time>
      </trkpt>
      <trkpt lat="48.69157" lon="1.73615">
        <ele>170</ele>
        <time>2015-04-13T09:32:42.000Z</time>
      </trkpt>
      <trkpt lat="48.69147" lon="1.73614">
        <ele>170</ele>
        <time>2015-04-13T09:32:49.000Z</time>
      </trkpt>
      <trkpt lat="48.69138" lon="1.73613">
        <ele>170</ele>
        <time>2015-04-13T09:32:55.000Z</time>
      </trkpt>
      <trkpt lat="48.69132" lon="1.73612">
        <ele>170</ele>
        <time>2015-04-13T09:32:59.000Z</time>
      </trkpt>
      <trkpt lat="48.69121" lon="1.7361">
        <ele>170</ele>
        <time>2015-04-13T09:33:06.000Z</time>
      </trkpt>
      <trkpt lat="48.69113" lon="1.73608">
        <ele>170</ele>
        <time>2015-04-13T09:33:12.000Z</time>
      </trkpt>
      <trkpt lat="48.69103" lon="1.73608">
        <ele>169.7</ele>
        <time>2015-04-13T09:33:18.000Z</time>
      </trkpt>
      <trkpt lat="48.69095" lon="1.73609">
        <ele>169.4</ele>
        <time>2015-04-13T09:33:23.000Z</time>
      </trkpt>
      <trkpt lat="48.69081" lon="1.73609">
        <ele>168.9</ele>
        <time>2015-04-13T09:33:32.000Z</time>
      </trkpt>
      <trkpt lat="48.69072" lon="1.73605">
        <ele>168.6</ele>
        <time>2015-04-13T09:33:39.000Z</time>
      </trkpt>
      <trkpt lat="48.69065" lon="1.73612">
        <ele>168.4</ele>
        <time>2015-04-13T09:33:47.000Z</time>
      </trkpt>
      <trkpt lat="48.6906" lon="1.73622">
        <ele>168.2</ele>
        <time>2015-04-13T09:33:54.000Z</time>
      </trkpt>
      <trkpt lat="48.69052" lon="1.73635">
        <ele>167.9</ele>
        <time>2015-04-13T09:34:02.000Z</time>
      </trkpt>
      <trkpt lat="48.69042" lon="1.73651">
        <ele>167.3</ele>
        <time>2015-04-13T09:34:11.000Z</time>
      </trkpt>
      <trkpt lat="48.69032" lon="1.73667">
        <ele>166.3</ele>
        <time>2015-04-13T09:34:20.000Z</time>
      </trkpt>
      <trkpt lat="48.69024" lon="1.73681">
        <ele>165.9</ele>
        <time>2015-04-13T09:34:29.000Z</time>
      </trkpt>
      <trkpt lat="48.69017" lon="1.73692">
        <ele>165.6</ele>
        <time>2015-04-13T09:34:36.000Z</time>
      </trkpt>
      <trkpt lat="48.69009" lon="1.73703">
        <ele>165.3</ele>
        <time>2015-04-13T09:34:44.000Z</time>
      </trkpt>
      <trkpt lat="48.69002" lon="1.73714">
        <ele>165.1</ele>
        <time>2015-04-13T09:34:51.000Z</time>
      </trkpt>
      <trkpt lat="48.68993" lon="1.73727">
        <ele>164.8</ele>
        <time>2015-04-13T09:34:59.000Z</time>
      </trkpt>
      <trkpt lat="48.68985" lon="1.73741">
        <ele>164.5</ele>
        <time>2015-04-13T09:35:06.000Z</time>
      </trkpt>
      <trkpt lat="48.68975" lon="1.73759">
        <ele>164.1</ele>
        <time>2015-04-13T09:35:16.000Z</time>
      </trkpt>
      <trkpt lat="48.68967" lon="1.73773">
        <ele>163.8</ele>
        <time>2015-04-13T09:35:25.000Z</time>
      </trkpt>
      <trkpt lat="48.6896" lon="1.73785">
        <ele>163.6</ele>
        <time>2015-04-13T09:35:32.000Z</time>
      </trkpt>
      <trkpt lat="48.68952" lon="1.73799">
        <ele>163.3</ele>
        <time>2015-04-13T09:35:40.000Z</time>
      </trkpt>
      <trkpt lat="48.68942" lon="1.73815">
        <ele>162.8</ele>
        <time>2015-04-13T09:35:50.000Z</time>
      </trkpt>
      <trkpt lat="48.68936" lon="1.73824">
        <ele>162.4</ele>
        <time>2015-04-13T09:35:57.000Z</time>
      </trkpt>
      <trkpt lat="48.68931" lon="1.73832">
        <ele>162</ele>
        <time>2015-04-13T09:36:03.000Z</time>
      </trkpt>
      <trkpt lat="48.6893" lon="1.73833">
        <ele>161.9</ele>
        <time>2015-04-13T09:36:07.000Z</time>
      </trkpt>
      <trkpt lat="48.68923" lon="1.7384">
        <ele>161.4</ele>
        <time>2015-04-13T09:36:27.000Z</time>
      </trkpt>
      <trkpt lat="48.68917" lon="1.73853">
        <ele>161</ele>
        <time>2015-04-13T09:36:34.000Z</time>
      </trkpt>
      <trkpt lat="48.68914" lon="1.73858">
        <ele>160.9</ele>
        <time>2015-04-13T09:36:37.000Z</time>
      </trkpt>
      <trkpt lat="48.68903" lon="1.73876">
        <ele>160.5</ele>
        <time>2015-04-13T09:36:48.000Z</time>
      </trkpt>
      <trkpt lat="48.68897" lon="1.73887">
        <ele>160.3</ele>
        <time>2015-04-13T09:36:55.000Z</time>
      </trkpt>
      <trkpt lat="48.68889" lon="1.73899">
        <ele>160</ele>
        <time>2015-04-13T09:37:03.000Z</time>
      </trkpt>
      <trkpt lat="48.6888" lon="1.73913">
        <ele>159.4</ele>
        <time>2015-04-13T09:37:12.000Z</time>
      </trkpt>
      <trkpt lat="48.68877" lon="1.73918">
        <ele>159.2</ele>
        <time>2015-04-13T09:37:15.000Z</time>
      </trkpt>
      <trkpt lat="48.68872" lon="1.73927">
        <ele>159</ele>
        <time>2015-04-13T09:37:20.000Z</time>
      </trkpt>
      <trkpt lat="48.68866" lon="1.73936">
        <ele>158.9</ele>
        <time>2015-04-13T09:37:25.000Z</time>
      </trkpt>
      <trkpt lat="48.68859" lon="1.73949">
        <ele>158.8</ele>
        <time>2015-04-13T09:37:33.000Z</time>
      </trkpt>
      <trkpt lat="48.68857" lon="1.73952">
        <ele>158.7</ele>
        <time>2015-04-13T09:37:35.000Z</time>
      </trkpt>
      <trkpt lat="48.6885" lon="1.73965">
        <ele>158.2</ele>
        <time>2015-04-13T09:37:41.000Z</time>
      </trkpt>
      <trkpt lat="48.68847" lon="1.7397">
        <ele>158</ele>
        <time>2015-04-13T09:37:43.000Z</time>
      </trkpt>
      <trkpt lat="48.68837" lon="1.73984">
        <ele>157.2</ele>
        <time>2015-04-13T09:37:52.000Z</time>
      </trkpt>
      <trkpt lat="48.68831" lon="1.73995">
        <ele>156.8</ele>
        <time>2015-04-13T09:38:00.000Z</time>
      </trkpt>
      <trkpt lat="48.68822" lon="1.74009">
        <ele>155.6</ele>
        <time>2015-04-13T09:38:08.000Z</time>
      </trkpt>
      <trkpt lat="48.68818" lon="1.74015">
        <ele>154.8</ele>
        <time>2015-04-13T09:38:12.000Z</time>
      </trkpt>
      <trkpt lat="48.68817" lon="1.74016">
        <ele>154.7</ele>
        <time>2015-04-13T09:38:15.000Z</time>
      </trkpt>
      <trkpt lat="48.68816" lon="1.74018">
        <ele>154.5</ele>
        <time>2015-04-13T09:38:18.000Z</time>
      </trkpt>
      <trkpt lat="48.68815" lon="1.7402">
        <ele>154.2</ele>
        <time>2015-04-13T09:38:19.000Z</time>
      </trkpt>
      <trkpt lat="48.68808" lon="1.74031">
        <ele>153.1</ele>
        <time>2015-04-13T09:38:26.000Z</time>
      </trkpt>
      <trkpt lat="48.68806" lon="1.74035">
        <ele>152.8</ele>
        <time>2015-04-13T09:38:28.000Z</time>
      </trkpt>
      <trkpt lat="48.68804" lon="1.74038">
        <ele>152.5</ele>
        <time>2015-04-13T09:38:30.000Z</time>
      </trkpt>
      <trkpt lat="48.68795" lon="1.74054">
        <ele>151.3</ele>
        <time>2015-04-13T09:38:37.000Z</time>
      </trkpt>
      <trkpt lat="48.68794" lon="1.74056">
        <ele>151.2</ele>
        <time>2015-04-13T09:38:38.000Z</time>
      </trkpt>
      <trkpt lat="48.68784" lon="1.7407">
        <ele>149.8</ele>
        <time>2015-04-13T09:38:47.000Z</time>
      </trkpt>
      <trkpt lat="48.68773" lon="1.74088">
        <ele>148.9</ele>
        <time>2015-04-13T09:38:57.000Z</time>
      </trkpt>
      <trkpt lat="48.68763" lon="1.74102">
        <ele>148.7</ele>
        <time>2015-04-13T09:39:06.000Z</time>
      </trkpt>
      <trkpt lat="48.68756" lon="1.74113">
        <ele>148.6</ele>
        <time>2015-04-13T09:39:13.000Z</time>
      </trkpt>
      <trkpt lat="48.68748" lon="1.74125">
        <ele>148</ele>
        <time>2015-04-13T09:39:21.000Z</time>
      </trkpt>
      <trkpt lat="48.68741" lon="1.74136">
        <ele>147.5</ele>
        <time>2015-04-13T09:39:27.000Z</time>
      </trkpt>
      <trkpt lat="48.68732" lon="1.74148">
        <ele>147.3</ele>
        <time>2015-04-13T09:39:32.000Z</time>
      </trkpt>
      <trkpt lat="48.68724" lon="1.74161">
        <ele>147.1</ele>
        <time>2015-04-13T09:39:41.000Z</time>
      </trkpt>
      <trkpt lat="48.68718" lon="1.74171">
        <ele>146.7</ele>
        <time>2015-04-13T09:39:48.000Z</time>
      </trkpt>
      <trkpt lat="48.68716" lon="1.74176">
        <ele>146.4</ele>
        <time>2015-04-13T09:39:51.000Z</time>
      </trkpt>
      <trkpt lat="48.6871" lon="1.74188">
        <ele>145.8</ele>
        <time>2015-04-13T09:39:58.000Z</time>
      </trkpt>
      <trkpt lat="48.68708" lon="1.74191">
        <ele>145.7</ele>
        <time>2015-04-13T09:39:59.000Z</time>
      </trkpt>
      <trkpt lat="48.68706" lon="1.74207">
        <ele>145.3</ele>
        <time>2015-04-13T09:40:08.000Z</time>
      </trkpt>
      <trkpt lat="48.68706" lon="1.74219">
        <ele>145.1</ele>
        <time>2015-04-13T09:40:13.000Z</time>
      </trkpt>
      <trkpt lat="48.68704" lon="1.74231">
        <ele>146.1</ele>
        <time>2015-04-13T09:40:19.000Z</time>
      </trkpt>
      <trkpt lat="48.68702" lon="1.74234">
        <ele>146.4</ele>
        <time>2015-04-13T09:40:21.000Z</time>
      </trkpt>
      <trkpt lat="48.68689" lon="1.7424">
        <ele>147</ele>
        <time>2015-04-13T09:40:29.000Z</time>
      </trkpt>
      <trkpt lat="48.68683" lon="1.74243">
        <ele>147.3</ele>
        <time>2015-04-13T09:40:33.000Z</time>
      </trkpt>
      <trkpt lat="48.6868" lon="1.74246">
        <ele>147.5</ele>
        <time>2015-04-13T09:40:35.000Z</time>
      </trkpt>
      <trkpt lat="48.68667" lon="1.74248">
        <ele>147.8</ele>
        <time>2015-04-13T09:40:43.000Z</time>
      </trkpt>
      <trkpt lat="48.68659" lon="1.74251">
        <ele>147.3</ele>
        <time>2015-04-13T09:40:49.000Z</time>
      </trkpt>
      <trkpt lat="48.68657" lon="1.74251">
        <ele>147.2</ele>
        <time>2015-04-13T09:40:50.000Z</time>
      </trkpt>
      <trkpt lat="48.68645" lon="1.74258">
        <ele>147.4</ele>
        <time>2015-04-13T09:40:59.000Z</time>
      </trkpt>
      <trkpt lat="48.68633" lon="1.74266">
        <ele>147.8</ele>
        <time>2015-04-13T09:41:07.000Z</time>
      </trkpt>
      <trkpt lat="48.68625" lon="1.74268">
        <ele>147.4</ele>
        <time>2015-04-13T09:41:12.000Z</time>
      </trkpt>
      <trkpt lat="48.68611" lon="1.74276">
        <ele>146.8</ele>
        <time>2015-04-13T09:41:22.000Z</time>
      </trkpt>
      <trkpt lat="48.686" lon="1.74282">
        <ele>146.3</ele>
        <time>2015-04-13T09:41:30.000Z</time>
      </trkpt>
      <trkpt lat="48.68593" lon="1.74289">
        <ele>146.1</ele>
        <time>2015-04-13T09:41:36.000Z</time>
      </trkpt>
      <trkpt lat="48.68588" lon="1.74298">
        <ele>146.2</ele>
        <time>2015-04-13T09:41:42.000Z</time>
      </trkpt>
      <trkpt lat="48.68581" lon="1.74316">
        <ele>146.3</ele>
        <time>2015-04-13T09:41:51.000Z</time>
      </trkpt>
      <trkpt lat="48.6858" lon="1.74328">
        <ele>146.5</ele>
        <time>2015-04-13T09:41:58.000Z</time>
      </trkpt>
      <trkpt lat="48.6858" lon="1.74343">
        <ele>146.7</ele>
        <time>2015-04-13T09:42:04.000Z</time>
      </trkpt>
      <trkpt lat="48.6858" lon="1.74353">
        <ele>146.7</ele>
        <time>2015-04-13T09:42:09.000Z</time>
      </trkpt>
      <trkpt lat="48.68578" lon="1.74372">
        <ele>146.8</ele>
        <time>2015-04-13T09:42:17.000Z</time>
      </trkpt>
      <trkpt lat="48.68577" lon="1.74388">
        <ele>147</ele>
        <time>2015-04-13T09:42:24.000Z</time>
      </trkpt>
      <trkpt lat="48.68577" lon="1.74394">
        <ele>147.4</ele>
        <time>2015-04-13T09:42:27.000Z</time>
      </trkpt>
      <trkpt lat="48.68572" lon="1.74407">
        <ele>147.5</ele>
        <time>2015-04-13T09:42:33.000Z</time>
      </trkpt>
      <trkpt lat="48.68569" lon="1.74414">
        <ele>147.1</ele>
        <time>2015-04-13T09:42:38.000Z</time>
      </trkpt>
      <trkpt lat="48.68562" lon="1.74424">
        <ele>146.7</ele>
        <time>2015-04-13T09:42:45.000Z</time>
      </trkpt>
      <trkpt lat="48.68555" lon="1.74439">
        <ele>148</ele>
        <time>2015-04-13T09:42:51.000Z</time>
      </trkpt>
      <trkpt lat="48.68554" lon="1.7444">
        <ele>148</ele>
        <time>2015-04-13T09:42:52.000Z</time>
      </trkpt>
      <trkpt lat="48.68544" lon="1.74452">
        <ele>148.4</ele>
        <time>2015-04-13T09:43:00.000Z</time>
      </trkpt>
      <trkpt lat="48.68535" lon="1.74458">
        <ele>148.1</ele>
        <time>2015-04-13T09:43:07.000Z</time>
      </trkpt>
      <trkpt lat="48.68524" lon="1.74464">
        <ele>147.8</ele>
        <time>2015-04-13T09:43:15.000Z</time>
      </trkpt>
      <trkpt lat="48.68514" lon="1.74469">
        <ele>147.6</ele>
        <time>2015-04-13T09:43:21.000Z</time>
      </trkpt>
      <trkpt lat="48.68512" lon="1.74471">
        <ele>147.6</ele>
        <time>2015-04-13T09:43:22.000Z</time>
      </trkpt>
      <trkpt lat="48.68505" lon="1.74473">
        <ele>146.8</ele>
        <time>2015-04-13T09:43:28.000Z</time>
      </trkpt>
      <trkpt lat="48.68495" lon="1.74478">
        <ele>146.7</ele>
        <time>2015-04-13T09:43:35.000Z</time>
      </trkpt>
      <trkpt lat="48.68488" lon="1.74484">
        <ele>147.4</ele>
        <time>2015-04-13T09:43:40.000Z</time>
      </trkpt>
      <trkpt lat="48.6848" lon="1.74489">
        <ele>147.9</ele>
        <time>2015-04-13T09:43:47.000Z</time>
      </trkpt>
      <trkpt lat="48.68467" lon="1.74497">
        <ele>148.5</ele>
        <time>2015-04-13T09:43:57.000Z</time>
      </trkpt>
      <trkpt lat="48.68456" lon="1.74504">
        <ele>147.8</ele>
        <time>2015-04-13T09:44:06.000Z</time>
      </trkpt>
      <trkpt lat="48.68455" lon="1.74504">
        <ele>147.7</ele>
        <time>2015-04-13T09:44:07.000Z</time>
      </trkpt>
      <trkpt lat="48.68454" lon="1.74504">
        <ele>147.7</ele>
        <time>2015-04-13T09:44:10.000Z</time>
      </trkpt>
      <trkpt lat="48.68451" lon="1.74497">
        <ele>145.8</ele>
        <time>2015-04-13T09:45:08.000Z</time>
      </trkpt>
      <trkpt lat="48.68444" lon="1.74507">
        <ele>146.7</ele>
        <time>2015-04-13T09:45:15.000Z</time>
      </trkpt>
      <trkpt lat="48.68441" lon="1.74509">
        <ele>146.8</ele>
        <time>2015-04-13T09:45:20.000Z</time>
      </trkpt>
      <trkpt lat="48.68431" lon="1.74516">
        <ele>147.2</ele>
        <time>2015-04-13T09:45:35.000Z</time>
      </trkpt>
      <trkpt lat="48.68428" lon="1.74519">
        <ele>147.3</ele>
        <time>2015-04-13T09:45:41.000Z</time>
      </trkpt>
      <trkpt lat="48.68422" lon="1.74523">
        <ele>147.2</ele>
        <time>2015-04-13T09:45:51.000Z</time>
      </trkpt>
      <trkpt lat="48.68416" lon="1.74528">
        <ele>147</ele>
        <time>2015-04-13T09:45:56.000Z</time>
      </trkpt>
      <trkpt lat="48.6841" lon="1.74533">
        <ele>146.9</ele>
        <time>2015-04-13T09:46:01.000Z</time>
      </trkpt>
      <trkpt lat="48.68401" lon="1.74544">
        <ele>146.6</ele>
        <time>2015-04-13T09:46:09.000Z</time>
      </trkpt>
      <trkpt lat="48.68395" lon="1.74554">
        <ele>146.5</ele>
        <time>2015-04-13T09:46:16.000Z</time>
      </trkpt>
      <trkpt lat="48.68395" lon="1.74555">
        <ele>146.5</ele>
        <time>2015-04-13T09:46:18.000Z</time>
      </trkpt>
      <trkpt lat="48.68391" lon="1.74563">
        <ele>145.4</ele>
        <time>2015-04-13T09:46:25.000Z</time>
      </trkpt>
      <trkpt lat="48.68383" lon="1.74574">
        <ele>144.8</ele>
        <time>2015-04-13T09:46:32.000Z</time>
      </trkpt>
      <trkpt lat="48.68374" lon="1.74587">
        <ele>144.7</ele>
        <time>2015-04-13T09:46:41.000Z</time>
      </trkpt>
      <trkpt lat="48.6837" lon="1.74604">
        <ele>145</ele>
        <time>2015-04-13T09:46:49.000Z</time>
      </trkpt>
      <trkpt lat="48.68366" lon="1.74615">
        <ele>144.7</ele>
        <time>2015-04-13T09:46:56.000Z</time>
      </trkpt>
      <trkpt lat="48.68362" lon="1.74628">
        <ele>144.1</ele>
        <time>2015-04-13T09:47:03.000Z</time>
      </trkpt>
      <trkpt lat="48.68361" lon="1.7463">
        <ele>144</ele>
        <time>2015-04-13T09:47:04.000Z</time>
      </trkpt>
      <trkpt lat="48.68357" lon="1.74643">
        <ele>144.4</ele>
        <time>2015-04-13T09:47:11.000Z</time>
      </trkpt>
      <trkpt lat="48.68352" lon="1.74652">
        <ele>145.3</ele>
        <time>2015-04-13T09:47:18.000Z</time>
      </trkpt>
      <trkpt lat="48.68348" lon="1.74663">
        <ele>145.8</ele>
        <time>2015-04-13T09:47:24.000Z</time>
      </trkpt>
      <trkpt lat="48.68344" lon="1.74677">
        <ele>146</ele>
        <time>2015-04-13T09:47:29.000Z</time>
      </trkpt>
      <trkpt lat="48.68338" lon="1.74683">
        <ele>145</ele>
        <time>2015-04-13T09:47:33.000Z</time>
      </trkpt>
      <trkpt lat="48.68327" lon="1.74703">
        <ele>145.3</ele>
        <time>2015-04-13T09:47:44.000Z</time>
      </trkpt>
      <trkpt lat="48.68324" lon="1.74711">
        <ele>145.9</ele>
        <time>2015-04-13T09:47:48.000Z</time>
      </trkpt>
      <trkpt lat="48.68316" lon="1.74725">
        <ele>146.1</ele>
        <time>2015-04-13T09:47:56.000Z</time>
      </trkpt>
      <trkpt lat="48.68315" lon="1.74728">
        <ele>146.2</ele>
        <time>2015-04-13T09:47:58.000Z</time>
      </trkpt>
      <trkpt lat="48.68309" lon="1.74738">
        <ele>146.3</ele>
        <time>2015-04-13T09:48:04.000Z</time>
      </trkpt>
      <trkpt lat="48.68304" lon="1.74746">
        <ele>146.2</ele>
        <time>2015-04-13T09:48:09.000Z</time>
      </trkpt>
      <trkpt lat="48.68299" lon="1.74753">
        <ele>146.5</ele>
        <time>2015-04-13T09:48:14.000Z</time>
      </trkpt>
      <trkpt lat="48.6829" lon="1.74771">
        <ele>146.8</ele>
        <time>2015-04-13T09:48:25.000Z</time>
      </trkpt>
      <trkpt lat="48.68281" lon="1.74791">
        <ele>145.5</ele>
        <time>2015-04-13T09:48:36.000Z</time>
      </trkpt>
      <trkpt lat="48.68275" lon="1.74804">
        <ele>144.8</ele>
        <time>2015-04-13T09:48:44.000Z</time>
      </trkpt>
      <trkpt lat="48.68269" lon="1.7482">
        <ele>145.4</ele>
        <time>2015-04-13T09:48:51.000Z</time>
      </trkpt>
      <trkpt lat="48.68263" lon="1.74831">
        <ele>145.2</ele>
        <time>2015-04-13T09:48:57.000Z</time>
      </trkpt>
      <trkpt lat="48.68254" lon="1.74846">
        <ele>144.8</ele>
        <time>2015-04-13T09:49:05.000Z</time>
      </trkpt>
      <trkpt lat="48.68245" lon="1.74866">
        <ele>144.8</ele>
        <time>2015-04-13T09:49:15.000Z</time>
      </trkpt>
      <trkpt lat="48.68243" lon="1.74869">
        <ele>144.8</ele>
        <time>2015-04-13T09:49:17.000Z</time>
      </trkpt>
      <trkpt lat="48.68238" lon="1.74884">
        <ele>144.6</ele>
        <time>2015-04-13T09:49:25.000Z</time>
      </trkpt>
      <trkpt lat="48.68237" lon="1.74886">
        <ele>144.6</ele>
        <time>2015-04-13T09:49:26.000Z</time>
      </trkpt>
      <trkpt lat="48.68231" lon="1.74905">
        <ele>144.4</ele>
        <time>2015-04-13T09:49:35.000Z</time>
      </trkpt>
      <trkpt lat="48.68229" lon="1.74916">
        <ele>144.5</ele>
        <time>2015-04-13T09:49:41.000Z</time>
      </trkpt>
      <trkpt lat="48.68225" lon="1.74931">
        <ele>144.3</ele>
        <time>2015-04-13T09:49:50.000Z</time>
      </trkpt>
      <trkpt lat="48.68223" lon="1.74936">
        <ele>144.1</ele>
        <time>2015-04-13T09:49:52.000Z</time>
      </trkpt>
      <trkpt lat="48.68223" lon="1.74951">
        <ele>144.7</ele>
        <time>2015-04-13T09:49:59.000Z</time>
      </trkpt>
      <trkpt lat="48.68218" lon="1.74962">
        <ele>144.9</ele>
        <time>2015-04-13T09:50:04.000Z</time>
      </trkpt>
      <trkpt lat="48.68214" lon="1.74978">
        <ele>145.4</ele>
        <time>2015-04-13T09:50:11.000Z</time>
      </trkpt>
      <trkpt lat="48.68214" lon="1.7499">
        <ele>146</ele>
        <time>2015-04-13T09:50:16.000Z</time>
      </trkpt>
      <trkpt lat="48.68213" lon="1.75005">
        <ele>146</ele>
        <time>2015-04-13T09:50:23.000Z</time>
      </trkpt>
      <trkpt lat="48.68205" lon="1.75022">
        <ele>144.2</ele>
        <time>2015-04-13T09:50:31.000Z</time>
      </trkpt>
      <trkpt lat="48.68198" lon="1.75037">
        <ele>145.1</ele>
        <time>2015-04-13T09:50:40.000Z</time>
      </trkpt>
      <trkpt lat="48.68192" lon="1.75051">
        <ele>146.2</ele>
        <time>2015-04-13T09:50:49.000Z</time>
      </trkpt>
      <trkpt lat="48.68188" lon="1.75059">
        <ele>146.2</ele>
        <time>2015-04-13T09:50:54.000Z</time>
      </trkpt>
      <trkpt lat="48.68183" lon="1.75073">
        <ele>145.6</ele>
        <time>2015-04-13T09:51:01.000Z</time>
      </trkpt>
      <trkpt lat="48.68177" lon="1.75086">
        <ele>145.2</ele>
        <time>2015-04-13T09:51:07.000Z</time>
      </trkpt>
      <trkpt lat="48.6817" lon="1.75099">
        <ele>145</ele>
        <time>2015-04-13T09:51:14.000Z</time>
      </trkpt>
      <trkpt lat="48.6817" lon="1.751">
        <ele>145</ele>
        <time>2015-04-13T09:51:15.000Z</time>
      </trkpt>
      <trkpt lat="48.68163" lon="1.75112">
        <ele>144.8</ele>
        <time>2015-04-13T09:51:21.000Z</time>
      </trkpt>
      <trkpt lat="48.68159" lon="1.7512">
        <ele>145.8</ele>
        <time>2015-04-13T09:51:25.000Z</time>
      </trkpt>
      <trkpt lat="48.68151" lon="1.75129">
        <ele>145.5</ele>
        <time>2015-04-13T09:51:32.000Z</time>
      </trkpt>
      <trkpt lat="48.68144" lon="1.75141">
        <ele>144.6</ele>
        <time>2015-04-13T09:51:40.000Z</time>
      </trkpt>
      <trkpt lat="48.68136" lon="1.75155">
        <ele>144.5</ele>
        <time>2015-04-13T09:51:48.000Z</time>
      </trkpt>
      <trkpt lat="48.68135" lon="1.75157">
        <ele>144.6</ele>
        <time>2015-04-13T09:51:49.000Z</time>
      </trkpt>
      <trkpt lat="48.68129" lon="1.75167">
        <ele>145</ele>
        <time>2015-04-13T09:51:55.000Z</time>
      </trkpt>
      <trkpt lat="48.68119" lon="1.75182">
        <ele>145.6</ele>
        <time>2015-04-13T09:52:05.000Z</time>
      </trkpt>
      <trkpt lat="48.6811" lon="1.75196">
        <ele>145</ele>
        <time>2015-04-13T09:52:15.000Z</time>
      </trkpt>
      <trkpt lat="48.68104" lon="1.75205">
        <ele>145.5</ele>
        <time>2015-04-13T09:52:20.000Z</time>
      </trkpt>
      <trkpt lat="48.68103" lon="1.75207">
        <ele>145.5</ele>
        <time>2015-04-13T09:52:21.000Z</time>
      </trkpt>
      <trkpt lat="48.68097" lon="1.75215">
        <ele>145.3</ele>
        <time>2015-04-13T09:52:26.000Z</time>
      </trkpt>
      <trkpt lat="48.6809" lon="1.75227">
        <ele>144.9</ele>
        <time>2015-04-13T09:52:33.000Z</time>
      </trkpt>
      <trkpt lat="48.68084" lon="1.75245">
        <ele>144.1</ele>
        <time>2015-04-13T09:52:42.000Z</time>
      </trkpt>
      <trkpt lat="48.68081" lon="1.75261">
        <ele>144.1</ele>
        <time>2015-04-13T09:52:49.000Z</time>
      </trkpt>
      <trkpt lat="48.68076" lon="1.75277">
        <ele>144.2</ele>
        <time>2015-04-13T09:52:57.000Z</time>
      </trkpt>
      <trkpt lat="48.68076" lon="1.75295">
        <ele>144.4</ele>
        <time>2015-04-13T09:53:04.000Z</time>
      </trkpt>
      <trkpt lat="48.68074" lon="1.75318">
        <ele>144.3</ele>
        <time>2015-04-13T09:53:13.000Z</time>
      </trkpt>
      <trkpt lat="48.68071" lon="1.75339">
        <ele>144.1</ele>
        <time>2015-04-13T09:53:22.000Z</time>
      </trkpt>
      <trkpt lat="48.68069" lon="1.75362">
        <ele>144.1</ele>
        <time>2015-04-13T09:53:32.000Z</time>
      </trkpt>
      <trkpt lat="48.68067" lon="1.75384">
        <ele>145.1</ele>
        <time>2015-04-13T09:53:41.000Z</time>
      </trkpt>
      <trkpt lat="48.68063" lon="1.75405">
        <ele>146.5</ele>
        <time>2015-04-13T09:53:50.000Z</time>
      </trkpt>
      <trkpt lat="48.68059" lon="1.75426">
        <ele>147</ele>
        <time>2015-04-13T09:54:00.000Z</time>
      </trkpt>
      <trkpt lat="48.68056" lon="1.75447">
        <ele>147</ele>
        <time>2015-04-13T09:54:10.000Z</time>
      </trkpt>
      <trkpt lat="48.68052" lon="1.75467">
        <ele>146.5</ele>
        <time>2015-04-13T09:54:18.000Z</time>
      </trkpt>
      <trkpt lat="48.68049" lon="1.75491">
        <ele>146.2</ele>
        <time>2015-04-13T09:54:28.000Z</time>
      </trkpt>
      <trkpt lat="48.68051" lon="1.75509">
        <ele>146.5</ele>
        <time>2015-04-13T09:54:37.000Z</time>
      </trkpt>
      <trkpt lat="48.68059" lon="1.75517">
        <ele>147.4</ele>
        <time>2015-04-13T09:54:43.000Z</time>
      </trkpt>
      <trkpt lat="48.68073" lon="1.75527">
        <ele>148.9</ele>
        <time>2015-04-13T09:54:53.000Z</time>
      </trkpt>
      <trkpt lat="48.68077" lon="1.75531">
        <ele>149.4</ele>
        <time>2015-04-13T09:54:56.000Z</time>
      </trkpt>
      <trkpt lat="48.68079" lon="1.75533">
        <ele>149.9</ele>
        <time>2015-04-13T09:54:58.000Z</time>
      </trkpt>
      <trkpt lat="48.68085" lon="1.75538">
        <ele>150.9</ele>
        <time>2015-04-13T09:55:03.000Z</time>
      </trkpt>
      <trkpt lat="48.68091" lon="1.75541">
        <ele>151.5</ele>
        <time>2015-04-13T09:55:07.000Z</time>
      </trkpt>
      <trkpt lat="48.68102" lon="1.75553">
        <ele>152.6</ele>
        <time>2015-04-13T09:55:17.000Z</time>
      </trkpt>
      <trkpt lat="48.68112" lon="1.75562">
        <ele>152.8</ele>
        <time>2015-04-13T09:55:25.000Z</time>
      </trkpt>
      <trkpt lat="48.68121" lon="1.75571">
        <ele>152.5</ele>
        <time>2015-04-13T09:55:33.000Z</time>
      </trkpt>
      <trkpt lat="48.68136" lon="1.75581">
        <ele>152.1</ele>
        <time>2015-04-13T09:55:44.000Z</time>
      </trkpt>
      <trkpt lat="48.68149" lon="1.75588">
        <ele>152.2</ele>
        <time>2015-04-13T09:55:54.000Z</time>
      </trkpt>
      <trkpt lat="48.6816" lon="1.75593">
        <ele>152.2</ele>
        <time>2015-04-13T09:56:02.000Z</time>
      </trkpt>
      <trkpt lat="48.68164" lon="1.75596">
        <ele>152.1</ele>
        <time>2015-04-13T09:56:05.000Z</time>
      </trkpt>
      <trkpt lat="48.68169" lon="1.75599">
        <ele>151.8</ele>
        <time>2015-04-13T09:56:09.000Z</time>
      </trkpt>
      <trkpt lat="48.68183" lon="1.75606">
        <ele>151</ele>
        <time>2015-04-13T09:56:19.000Z</time>
      </trkpt>
      <trkpt lat="48.68192" lon="1.7561">
        <ele>151</ele>
        <time>2015-04-13T09:56:27.000Z</time>
      </trkpt>
      <trkpt lat="48.68205" lon="1.75614">
        <ele>150.6</ele>
        <time>2015-04-13T09:56:36.000Z</time>
      </trkpt>
      <trkpt lat="48.68218" lon="1.7562">
        <ele>150.1</ele>
        <time>2015-04-13T09:56:46.000Z</time>
      </trkpt>
      <trkpt lat="48.68231" lon="1.75624">
        <ele>150</ele>
        <time>2015-04-13T09:56:54.000Z</time>
      </trkpt>
      <trkpt lat="48.68244" lon="1.75628">
        <ele>150</ele>
        <time>2015-04-13T09:57:04.000Z</time>
      </trkpt>
      <trkpt lat="48.68256" lon="1.75632">
        <ele>150</ele>
        <time>2015-04-13T09:57:12.000Z</time>
      </trkpt>
      <trkpt lat="48.68266" lon="1.75636">
        <ele>150</ele>
        <time>2015-04-13T09:57:20.000Z</time>
      </trkpt>
      <trkpt lat="48.68277" lon="1.75641">
        <ele>149.9</ele>
        <time>2015-04-13T09:57:28.000Z</time>
      </trkpt>
      <trkpt lat="48.68287" lon="1.75644">
        <ele>149.9</ele>
        <time>2015-04-13T09:57:34.000Z</time>
      </trkpt>
      <trkpt lat="48.68298" lon="1.75647">
        <ele>149.9</ele>
        <time>2015-04-13T09:57:41.000Z</time>
      </trkpt>
      <trkpt lat="48.68303" lon="1.75647">
        <ele>150</ele>
        <time>2015-04-13T09:57:44.000Z</time>
      </trkpt>
      <trkpt lat="48.6831" lon="1.75647">
        <ele>150</ele>
        <time>2015-04-13T09:57:49.000Z</time>
      </trkpt>
      <trkpt lat="48.68315" lon="1.75647">
        <ele>150</ele>
        <time>2015-04-13T09:57:55.000Z</time>
      </trkpt>
      <trkpt lat="48.68323" lon="1.75646">
        <ele>150</ele>
        <time>2015-04-13T09:58:01.000Z</time>
      </trkpt>
      <trkpt lat="48.68333" lon="1.75642">
        <ele>150</ele>
        <time>2015-04-13T09:58:08.000Z</time>
      </trkpt>
      <trkpt lat="48.68341" lon="1.7563">
        <ele>150.5</ele>
        <time>2015-04-13T09:58:15.000Z</time>
      </trkpt>
      <trkpt lat="48.68349" lon="1.75621">
        <ele>150.8</ele>
        <time>2015-04-13T09:58:22.000Z</time>
      </trkpt>
      <trkpt lat="48.68354" lon="1.75617">
        <ele>150.9</ele>
        <time>2015-04-13T09:58:26.000Z</time>
      </trkpt>
      <trkpt lat="48.68364" lon="1.75612">
        <ele>151.1</ele>
        <time>2015-04-13T09:58:33.000Z</time>
      </trkpt>
      <trkpt lat="48.68367" lon="1.75611">
        <ele>151.2</ele>
        <time>2015-04-13T09:58:35.000Z</time>
      </trkpt>
      <trkpt lat="48.68375" lon="1.7561">
        <ele>151.5</ele>
        <time>2015-04-13T09:58:40.000Z</time>
      </trkpt>
      <trkpt lat="48.68376" lon="1.7561">
        <ele>151.6</ele>
        <time>2015-04-13T09:58:41.000Z</time>
      </trkpt>
      <trkpt lat="48.68386" lon="1.75607">
        <ele>151.9</ele>
        <time>2015-04-13T09:58:47.000Z</time>
      </trkpt>
      <trkpt lat="48.68398" lon="1.75596">
        <ele>152</ele>
        <time>2015-04-13T09:58:55.000Z</time>
      </trkpt>
      <trkpt lat="48.6841" lon="1.75588">
        <ele>152</ele>
        <time>2015-04-13T09:59:05.000Z</time>
      </trkpt>
      <trkpt lat="48.68413" lon="1.75586">
        <ele>152</ele>
        <time>2015-04-13T09:59:08.000Z</time>
      </trkpt>
      <trkpt lat="48.68425" lon="1.7558">
        <ele>152.1</ele>
        <time>2015-04-13T09:59:15.000Z</time>
      </trkpt>
      <trkpt lat="48.68432" lon="1.75577">
        <ele>152.2</ele>
        <time>2015-04-13T09:59:20.000Z</time>
      </trkpt>
      <trkpt lat="48.68434" lon="1.75575">
        <ele>152.3</ele>
        <time>2015-04-13T09:59:22.000Z</time>
      </trkpt>
      <trkpt lat="48.68443" lon="1.75571">
        <ele>152.5</ele>
        <time>2015-04-13T09:59:29.000Z</time>
      </trkpt>
      <trkpt lat="48.68455" lon="1.75565">
        <ele>152.7</ele>
        <time>2015-04-13T09:59:36.000Z</time>
      </trkpt>
      <trkpt lat="48.6846" lon="1.75561">
        <ele>152.8</ele>
        <time>2015-04-13T09:59:40.000Z</time>
      </trkpt>
      <trkpt lat="48.68467" lon="1.75557">
        <ele>152.9</ele>
        <time>2015-04-13T09:59:44.000Z</time>
      </trkpt>
      <trkpt lat="48.68473" lon="1.75555">
        <ele>153</ele>
        <time>2015-04-13T09:59:48.000Z</time>
      </trkpt>
      <trkpt lat="48.68483" lon="1.75551">
        <ele>152.7</ele>
        <time>2015-04-13T09:59:56.000Z</time>
      </trkpt>
      <trkpt lat="48.68491" lon="1.75546">
        <ele>152.6</ele>
        <time>2015-04-13T10:00:03.000Z</time>
      </trkpt>
      <trkpt lat="48.68494" lon="1.75545">
        <ele>152.5</ele>
        <time>2015-04-13T10:00:06.000Z</time>
      </trkpt>
      <trkpt lat="48.68502" lon="1.75544">
        <ele>152.5</ele>
        <time>2015-04-13T10:00:12.000Z</time>
      </trkpt>
      <trkpt lat="48.6851" lon="1.7555">
        <ele>152.5</ele>
        <time>2015-04-13T10:00:18.000Z</time>
      </trkpt>
      <trkpt lat="48.68513" lon="1.75561">
        <ele>152.4</ele>
        <time>2015-04-13T10:00:25.000Z</time>
      </trkpt>
      <trkpt lat="48.68516" lon="1.75576">
        <ele>152.1</ele>
        <time>2015-04-13T10:00:33.000Z</time>
      </trkpt>
      <trkpt lat="48.68519" lon="1.75596">
        <ele>151.7</ele>
        <time>2015-04-13T10:00:42.000Z</time>
      </trkpt>
      <trkpt lat="48.6852" lon="1.75613">
        <ele>151.3</ele>
        <time>2015-04-13T10:00:49.000Z</time>
      </trkpt>
      <trkpt lat="48.68522" lon="1.75626">
        <ele>151.2</ele>
        <time>2015-04-13T10:00:55.000Z</time>
      </trkpt>
      <trkpt lat="48.68524" lon="1.75638">
        <ele>151.1</ele>
        <time>2015-04-13T10:01:01.000Z</time>
      </trkpt>
      <trkpt lat="48.68526" lon="1.75642">
        <ele>150.9</ele>
        <time>2015-04-13T10:01:03.000Z</time>
      </trkpt>
      <trkpt lat="48.68531" lon="1.75653">
        <ele>150.5</ele>
        <time>2015-04-13T10:01:08.000Z</time>
      </trkpt>
      <trkpt lat="48.68535" lon="1.75666">
        <ele>150</ele>
        <time>2015-04-13T10:01:14.000Z</time>
      </trkpt>
      <trkpt lat="48.68536" lon="1.7567">
        <ele>150</ele>
        <time>2015-04-13T10:01:16.000Z</time>
      </trkpt>
      <trkpt lat="48.68538" lon="1.75676">
        <ele>150</ele>
        <time>2015-04-13T10:01:18.000Z</time>
      </trkpt>
      <trkpt lat="48.68542" lon="1.75693">
        <ele>150</ele>
        <time>2015-04-13T10:01:25.000Z</time>
      </trkpt>
      <trkpt lat="48.68545" lon="1.75709">
        <ele>150</ele>
        <time>2015-04-13T10:01:32.000Z</time>
      </trkpt>
      <trkpt lat="48.68544" lon="1.75723">
        <ele>150</ele>
        <time>2015-04-13T10:01:38.000Z</time>
      </trkpt>
      <trkpt lat="48.68545" lon="1.75735">
        <ele>150</ele>
        <time>2015-04-13T10:01:43.000Z</time>
      </trkpt>
      <trkpt lat="48.68545" lon="1.75739">
        <ele>150</ele>
        <time>2015-04-13T10:01:45.000Z</time>
      </trkpt>
      <trkpt lat="48.68545" lon="1.75753">
        <ele>150</ele>
        <time>2015-04-13T10:01:51.000Z</time>
      </trkpt>
      <trkpt lat="48.68545" lon="1.75763">
        <ele>150</ele>
        <time>2015-04-13T10:01:55.000Z</time>
      </trkpt>
      <trkpt lat="48.68545" lon="1.75782">
        <ele>149.8</ele>
        <time>2015-04-13T10:02:04.000Z</time>
      </trkpt>
      <trkpt lat="48.68546" lon="1.75784">
        <ele>149.8</ele>
        <time>2015-04-13T10:02:05.000Z</time>
      </trkpt>
      <trkpt lat="48.68549" lon="1.75797">
        <ele>149.3</ele>
        <time>2015-04-13T10:02:12.000Z</time>
      </trkpt>
      <trkpt lat="48.6855" lon="1.75799">
        <ele>149.2</ele>
        <time>2015-04-13T10:02:13.000Z</time>
      </trkpt>
      <trkpt lat="48.68551" lon="1.75815">
        <ele>149</ele>
        <time>2015-04-13T10:02:21.000Z</time>
      </trkpt>
      <trkpt lat="48.6855" lon="1.7583">
        <ele>149</ele>
        <time>2015-04-13T10:02:27.000Z</time>
      </trkpt>
      <trkpt lat="48.68552" lon="1.75842">
        <ele>149</ele>
        <time>2015-04-13T10:02:33.000Z</time>
      </trkpt>
      <trkpt lat="48.68554" lon="1.75862">
        <ele>148.9</ele>
        <time>2015-04-13T10:02:43.000Z</time>
      </trkpt>
      <trkpt lat="48.68556" lon="1.7587">
        <ele>148.7</ele>
        <time>2015-04-13T10:02:47.000Z</time>
      </trkpt>
      <trkpt lat="48.68557" lon="1.75878">
        <ele>148.4</ele>
        <time>2015-04-13T10:02:51.000Z</time>
      </trkpt>
      <trkpt lat="48.68559" lon="1.75889">
        <ele>148.1</ele>
        <time>2015-04-13T10:02:56.000Z</time>
      </trkpt>
      <trkpt lat="48.68561" lon="1.75896">
        <ele>148.2</ele>
        <time>2015-04-13T10:03:00.000Z</time>
      </trkpt>
      <trkpt lat="48.68561" lon="1.75907">
        <ele>148.2</ele>
        <time>2015-04-13T10:03:05.000Z</time>
      </trkpt>
      <trkpt lat="48.68562" lon="1.75909">
        <ele>148.2</ele>
        <time>2015-04-13T10:03:06.000Z</time>
      </trkpt>
      <trkpt lat="48.68564" lon="1.75927">
        <ele>148.3</ele>
        <time>2015-04-13T10:03:15.000Z</time>
      </trkpt>
      <trkpt lat="48.68567" lon="1.75941">
        <ele>148.4</ele>
        <time>2015-04-13T10:03:22.000Z</time>
      </trkpt>
      <trkpt lat="48.68568" lon="1.75954">
        <ele>148.8</ele>
        <time>2015-04-13T10:03:29.000Z</time>
      </trkpt>
      <trkpt lat="48.68568" lon="1.75958">
        <ele>148.9</ele>
        <time>2015-04-13T10:03:31.000Z</time>
      </trkpt>
      <trkpt lat="48.6857" lon="1.75978">
        <ele>149.6</ele>
        <time>2015-04-13T10:03:40.000Z</time>
      </trkpt>
      <trkpt lat="48.68573" lon="1.75997">
        <ele>149.7</ele>
        <time>2015-04-13T10:03:49.000Z</time>
      </trkpt>
      <trkpt lat="48.68575" lon="1.76">
        <ele>149.7</ele>
        <time>2015-04-13T10:03:51.000Z</time>
      </trkpt>
      <trkpt lat="48.68583" lon="1.76003">
        <ele>150</ele>
        <time>2015-04-13T10:03:57.000Z</time>
      </trkpt>
      <trkpt lat="48.68596" lon="1.76007">
        <ele>150.5</ele>
        <time>2015-04-13T10:04:02.000Z</time>
      </trkpt>
      <trkpt lat="48.68614" lon="1.76012">
        <ele>151.1</ele>
        <time>2015-04-13T10:04:07.000Z</time>
      </trkpt>
      <trkpt lat="48.68638" lon="1.7602">
        <ele>152</ele>
        <time>2015-04-13T10:04:13.000Z</time>
      </trkpt>
      <trkpt lat="48.68661" lon="1.76028">
        <ele>152.8</ele>
        <time>2015-04-13T10:04:18.000Z</time>
      </trkpt>
      <trkpt lat="48.68681" lon="1.76034">
        <ele>153.4</ele>
        <time>2015-04-13T10:04:22.000Z</time>
      </trkpt>
      <trkpt lat="48.68713" lon="1.76046">
        <ele>154.7</ele>
        <time>2015-04-13T10:04:28.000Z</time>
      </trkpt>
      <trkpt lat="48.68718" lon="1.76048">
        <ele>154.8</ele>
        <time>2015-04-13T10:04:29.000Z</time>
      </trkpt>
      <trkpt lat="48.68733" lon="1.76054">
        <ele>155.8</ele>
        <time>2015-04-13T10:04:32.000Z</time>
      </trkpt>
      <trkpt lat="48.68743" lon="1.7606">
        <ele>156.6</ele>
        <time>2015-04-13T10:04:34.000Z</time>
      </trkpt>
      <trkpt lat="48.68761" lon="1.76069">
        <ele>158.3</ele>
        <time>2015-04-13T10:04:38.000Z</time>
      </trkpt>
      <trkpt lat="48.68777" lon="1.76075">
        <ele>159.6</ele>
        <time>2015-04-13T10:04:42.000Z</time>
      </trkpt>
      <trkpt lat="48.68801" lon="1.76082">
        <ele>159.9</ele>
        <time>2015-04-13T10:04:48.000Z</time>
      </trkpt>
      <trkpt lat="48.68816" lon="1.76088">
        <ele>160.1</ele>
        <time>2015-04-13T10:04:52.000Z</time>
      </trkpt>
      <trkpt lat="48.68843" lon="1.76098">
        <ele>160.2</ele>
        <time>2015-04-13T10:04:58.000Z</time>
      </trkpt>
      <trkpt lat="48.68862" lon="1.76105">
        <ele>160.8</ele>
        <time>2015-04-13T10:05:02.000Z</time>
      </trkpt>
      <trkpt lat="48.68876" lon="1.7611">
        <ele>162</ele>
        <time>2015-04-13T10:05:05.000Z</time>
      </trkpt>
      <trkpt lat="48.689" lon="1.76116">
        <ele>163.6</ele>
        <time>2015-04-13T10:05:10.000Z</time>
      </trkpt>
      <trkpt lat="48.6891" lon="1.76115">
        <ele>164</ele>
        <time>2015-04-13T10:05:12.000Z</time>
      </trkpt>
      <trkpt lat="48.68932" lon="1.76123">
        <ele>166.8</ele>
        <time>2015-04-13T10:05:18.000Z</time>
      </trkpt>
      <trkpt lat="48.68934" lon="1.76124">
        <ele>167.2</ele>
        <time>2015-04-13T10:05:19.000Z</time>
      </trkpt>
      <trkpt lat="48.68949" lon="1.76129">
        <ele>169</ele>
        <time>2015-04-13T10:05:24.000Z</time>
      </trkpt>
      <trkpt lat="48.68966" lon="1.76137">
        <ele>170.5</ele>
        <time>2015-04-13T10:05:30.000Z</time>
      </trkpt>
      <trkpt lat="48.6897" lon="1.76139">
        <ele>170.9</ele>
        <time>2015-04-13T10:05:34.000Z</time>
      </trkpt>
      <trkpt lat="48.68977" lon="1.76143">
        <ele>171.3</ele>
        <time>2015-04-13T10:05:40.000Z</time>
      </trkpt>
      <trkpt lat="48.68985" lon="1.76149">
        <ele>171.9</ele>
        <time>2015-04-13T10:05:46.000Z</time>
      </trkpt>
      <trkpt lat="48.68989" lon="1.76152">
        <ele>172.2</ele>
        <time>2015-04-13T10:05:49.000Z</time>
      </trkpt>
      <trkpt lat="48.68999" lon="1.76156">
        <ele>172.9</ele>
        <time>2015-04-13T10:05:55.000Z</time>
      </trkpt>
      <trkpt lat="48.69009" lon="1.7616">
        <ele>173</ele>
        <time>2015-04-13T10:06:00.000Z</time>
      </trkpt>
      <trkpt lat="48.69013" lon="1.76161">
        <ele>173</ele>
        <time>2015-04-13T10:06:02.000Z</time>
      </trkpt>
      <trkpt lat="48.69018" lon="1.76161">
        <ele>173</ele>
        <time>2015-04-13T10:06:06.000Z</time>
      </trkpt>
      <trkpt lat="48.69025" lon="1.76164">
        <ele>173</ele>
        <time>2015-04-13T10:06:11.000Z</time>
      </trkpt>
      <trkpt lat="48.69034" lon="1.76172">
        <ele>173.2</ele>
        <time>2015-04-13T10:06:19.000Z</time>
      </trkpt>
      <trkpt lat="48.69039" lon="1.76176">
        <ele>173.2</ele>
        <time>2015-04-13T10:06:25.000Z</time>
      </trkpt>
      <trkpt lat="48.6905" lon="1.76185">
        <ele>173.1</ele>
        <time>2015-04-13T10:06:34.000Z</time>
      </trkpt>
      <trkpt lat="48.69052" lon="1.76187">
        <ele>173.1</ele>
        <time>2015-04-13T10:06:36.000Z</time>
      </trkpt>
      <trkpt lat="48.69062" lon="1.76191">
        <ele>173</ele>
        <time>2015-04-13T10:06:43.000Z</time>
      </trkpt>
      <trkpt lat="48.69068" lon="1.76197">
        <ele>173.1</ele>
        <time>2015-04-13T10:06:48.000Z</time>
      </trkpt>
      <trkpt lat="48.69078" lon="1.76204">
        <ele>173.1</ele>
        <time>2015-04-13T10:06:55.000Z</time>
      </trkpt>
      <trkpt lat="48.69083" lon="1.76207">
        <ele>173</ele>
        <time>2015-04-13T10:06:58.000Z</time>
      </trkpt>
      <trkpt lat="48.69093" lon="1.76214">
        <ele>173</ele>
        <time>2015-04-13T10:07:05.000Z</time>
      </trkpt>
      <trkpt lat="48.69099" lon="1.76218">
        <ele>173</ele>
        <time>2015-04-13T10:07:08.000Z</time>
      </trkpt>
      <trkpt lat="48.69108" lon="1.76219">
        <ele>173</ele>
        <time>2015-04-13T10:07:13.000Z</time>
      </trkpt>
      <trkpt lat="48.69112" lon="1.76221">
        <ele>173</ele>
        <time>2015-04-13T10:07:15.000Z</time>
      </trkpt>
      <trkpt lat="48.69122" lon="1.76225">
        <ele>173</ele>
        <time>2015-04-13T10:07:21.000Z</time>
      </trkpt>
      <trkpt lat="48.6913" lon="1.76235">
        <ele>173</ele>
        <time>2015-04-13T10:07:28.000Z</time>
      </trkpt>
      <trkpt lat="48.6914" lon="1.7624">
        <ele>173</ele>
        <time>2015-04-13T10:07:35.000Z</time>
      </trkpt>
      <trkpt lat="48.69145" lon="1.76242">
        <ele>173</ele>
        <time>2015-04-13T10:07:39.000Z</time>
      </trkpt>
      <trkpt lat="48.69149" lon="1.76245">
        <ele>173</ele>
        <time>2015-04-13T10:07:42.000Z</time>
      </trkpt>
      <trkpt lat="48.69159" lon="1.76251">
        <ele>173</ele>
        <time>2015-04-13T10:07:50.000Z</time>
      </trkpt>
      <trkpt lat="48.69162" lon="1.76252">
        <ele>173</ele>
        <time>2015-04-13T10:07:52.000Z</time>
      </trkpt>
      <trkpt lat="48.69168" lon="1.76255">
        <ele>173</ele>
        <time>2015-04-13T10:07:57.000Z</time>
      </trkpt>
      <trkpt lat="48.69171" lon="1.76257">
        <ele>173</ele>
        <time>2015-04-13T10:08:00.000Z</time>
      </trkpt>
      <trkpt lat="48.69179" lon="1.76259">
        <ele>173</ele>
        <time>2015-04-13T10:08:07.000Z</time>
      </trkpt>
      <trkpt lat="48.69182" lon="1.7626">
        <ele>173</ele>
        <time>2015-04-13T10:08:10.000Z</time>
      </trkpt>
      <trkpt lat="48.69185" lon="1.76262">
        <ele>173</ele>
        <time>2015-04-13T10:08:12.000Z</time>
      </trkpt>
      <trkpt lat="48.69194" lon="1.76265">
        <ele>173</ele>
        <time>2015-04-13T10:08:19.000Z</time>
      </trkpt>
      <trkpt lat="48.692" lon="1.76269">
        <ele>173.2</ele>
        <time>2015-04-13T10:08:22.000Z</time>
      </trkpt>
      <trkpt lat="48.69211" lon="1.76278">
        <ele>173.6</ele>
        <time>2015-04-13T10:08:30.000Z</time>
      </trkpt>
      <trkpt lat="48.6922" lon="1.76284">
        <ele>173.9</ele>
        <time>2015-04-13T10:08:36.000Z</time>
      </trkpt>
      <trkpt lat="48.69223" lon="1.76286">
        <ele>174</ele>
        <time>2015-04-13T10:08:38.000Z</time>
      </trkpt>
      <trkpt lat="48.69226" lon="1.76287">
        <ele>173.9</ele>
        <time>2015-04-13T10:08:40.000Z</time>
      </trkpt>
      <trkpt lat="48.69233" lon="1.76292">
        <ele>173.6</ele>
        <time>2015-04-13T10:08:46.000Z</time>
      </trkpt>
      <trkpt lat="48.69241" lon="1.76297">
        <ele>173.3</ele>
        <time>2015-04-13T10:08:51.000Z</time>
      </trkpt>
      <trkpt lat="48.69243" lon="1.763">
        <ele>173.2</ele>
        <time>2015-04-13T10:08:53.000Z</time>
      </trkpt>
      <trkpt lat="48.6925" lon="1.76303">
        <ele>173</ele>
        <time>2015-04-13T10:08:57.000Z</time>
      </trkpt>
      <trkpt lat="48.6926" lon="1.7631">
        <ele>173</ele>
        <time>2015-04-13T10:09:04.000Z</time>
      </trkpt>
      <trkpt lat="48.69269" lon="1.76314">
        <ele>173</ele>
        <time>2015-04-13T10:09:11.000Z</time>
      </trkpt>
      <trkpt lat="48.69275" lon="1.76318">
        <ele>173</ele>
        <time>2015-04-13T10:09:16.000Z</time>
      </trkpt>
      <trkpt lat="48.69281" lon="1.76322">
        <ele>173</ele>
        <time>2015-04-13T10:09:20.000Z</time>
      </trkpt>
      <trkpt lat="48.69287" lon="1.76327">
        <ele>173</ele>
        <time>2015-04-13T10:09:24.000Z</time>
      </trkpt>
      <trkpt lat="48.69297" lon="1.76321">
        <ele>173</ele>
        <time>2015-04-13T10:09:32.000Z</time>
      </trkpt>
      <trkpt lat="48.69302" lon="1.76314">
        <ele>173</ele>
        <time>2015-04-13T10:09:38.000Z</time>
      </trkpt>
      <trkpt lat="48.69302" lon="1.76313">
        <ele>173</ele>
        <time>2015-04-13T10:09:41.000Z</time>
      </trkpt>
      <trkpt lat="48.69304" lon="1.76305">
        <ele>173</ele>
        <time>2015-04-13T10:09:47.000Z</time>
      </trkpt>
      <trkpt lat="48.69306" lon="1.76298">
        <ele>173</ele>
        <time>2015-04-13T10:09:50.000Z</time>
      </trkpt>
      <trkpt lat="48.69311" lon="1.76287">
        <ele>173</ele>
        <time>2015-04-13T10:09:56.000Z</time>
      </trkpt>
      <trkpt lat="48.69317" lon="1.76282">
        <ele>173</ele>
        <time>2015-04-13T10:10:01.000Z</time>
      </trkpt>
      <trkpt lat="48.69319" lon="1.7628">
        <ele>173</ele>
        <time>2015-04-13T10:10:03.000Z</time>
      </trkpt>
      <trkpt lat="48.69322" lon="1.76276">
        <ele>173</ele>
        <time>2015-04-13T10:10:07.000Z</time>
      </trkpt>
      <trkpt lat="48.69328" lon="1.7627">
        <ele>173</ele>
        <time>2015-04-13T10:10:13.000Z</time>
      </trkpt>
      <trkpt lat="48.69332" lon="1.76261">
        <ele>173</ele>
        <time>2015-04-13T10:10:18.000Z</time>
      </trkpt>
      <trkpt lat="48.69336" lon="1.76255">
        <ele>173</ele>
        <time>2015-04-13T10:10:23.000Z</time>
      </trkpt>
      <trkpt lat="48.69341" lon="1.76243">
        <ele>173</ele>
        <time>2015-04-13T10:10:29.000Z</time>
      </trkpt>
      <trkpt lat="48.69346" lon="1.76234">
        <ele>173</ele>
        <time>2015-04-13T10:10:35.000Z</time>
      </trkpt>
      <trkpt lat="48.69347" lon="1.7623">
        <ele>173</ele>
        <time>2015-04-13T10:10:37.000Z</time>
      </trkpt>
      <trkpt lat="48.69352" lon="1.76219">
        <ele>173</ele>
        <time>2015-04-13T10:10:45.000Z</time>
      </trkpt>
      <trkpt lat="48.69352" lon="1.76217">
        <ele>173</ele>
        <time>2015-04-13T10:10:46.000Z</time>
      </trkpt>
      <trkpt lat="48.6936" lon="1.76208">
        <ele>173</ele>
        <time>2015-04-13T10:10:52.000Z</time>
      </trkpt>
      <trkpt lat="48.6936" lon="1.76206">
        <ele>173</ele>
        <time>2015-04-13T10:10:53.000Z</time>
      </trkpt>
      <trkpt lat="48.69363" lon="1.762">
        <ele>173</ele>
        <time>2015-04-13T10:10:58.000Z</time>
      </trkpt>
      <trkpt lat="48.69367" lon="1.7619">
        <ele>173.2</ele>
        <time>2015-04-13T10:11:04.000Z</time>
      </trkpt>
      <trkpt lat="48.69368" lon="1.76188">
        <ele>173.2</ele>
        <time>2015-04-13T10:11:05.000Z</time>
      </trkpt>
      <trkpt lat="48.69372" lon="1.76179">
        <ele>173.6</ele>
        <time>2015-04-13T10:11:11.000Z</time>
      </trkpt>
      <trkpt lat="48.69377" lon="1.76166">
        <ele>174</ele>
        <time>2015-04-13T10:11:18.000Z</time>
      </trkpt>
      <trkpt lat="48.69381" lon="1.76158">
        <ele>174</ele>
        <time>2015-04-13T10:11:23.000Z</time>
      </trkpt>
      <trkpt lat="48.69387" lon="1.76142">
        <ele>174</ele>
        <time>2015-04-13T10:11:31.000Z</time>
      </trkpt>
      <trkpt lat="48.69391" lon="1.7613">
        <ele>174</ele>
        <time>2015-04-13T10:11:37.000Z</time>
      </trkpt>
      <trkpt lat="48.69396" lon="1.76114">
        <ele>174</ele>
        <time>2015-04-13T10:11:44.000Z</time>
      </trkpt>
      <trkpt lat="48.69402" lon="1.76101">
        <ele>174</ele>
        <time>2015-04-13T10:11:50.000Z</time>
      </trkpt>
      <trkpt lat="48.69407" lon="1.76091">
        <ele>174</ele>
        <time>2015-04-13T10:11:56.000Z</time>
      </trkpt>
      <trkpt lat="48.69413" lon="1.76077">
        <ele>173.8</ele>
        <time>2015-04-13T10:12:03.000Z</time>
      </trkpt>
      <trkpt lat="48.69417" lon="1.7607">
        <ele>173.5</ele>
        <time>2015-04-13T10:12:07.000Z</time>
      </trkpt>
      <trkpt lat="48.69419" lon="1.76066">
        <ele>173.4</ele>
        <time>2015-04-13T10:12:12.000Z</time>
      </trkpt>
      <trkpt lat="48.69427" lon="1.76073">
        <ele>173.6</ele>
        <time>2015-04-13T10:12:19.000Z</time>
      </trkpt>
      <trkpt lat="48.69434" lon="1.76081">
        <ele>173.9</ele>
        <time>2015-04-13T10:12:25.000Z</time>
      </trkpt>
      <trkpt lat="48.69443" lon="1.76096">
        <ele>174</ele>
        <time>2015-04-13T10:12:34.000Z</time>
      </trkpt>
      <trkpt lat="48.69444" lon="1.76098">
        <ele>174</ele>
        <time>2015-04-13T10:12:35.000Z</time>
      </trkpt>
      <trkpt lat="48.69449" lon="1.76104">
        <ele>173.8</ele>
        <time>2015-04-13T10:12:40.000Z</time>
      </trkpt>
      <trkpt lat="48.6945" lon="1.76106">
        <ele>173.8</ele>
        <time>2015-04-13T10:12:41.000Z</time>
      </trkpt>
      <trkpt lat="48.69453" lon="1.7611">
        <ele>173.7</ele>
        <time>2015-04-13T10:12:43.000Z</time>
      </trkpt>
      <trkpt lat="48.6946" lon="1.76121">
        <ele>173.4</ele>
        <time>2015-04-13T10:12:49.000Z</time>
      </trkpt>
      <trkpt lat="48.69465" lon="1.76131">
        <ele>173.3</ele>
        <time>2015-04-13T10:12:56.000Z</time>
      </trkpt>
      <trkpt lat="48.6947" lon="1.76136">
        <ele>173.1</ele>
        <time>2015-04-13T10:13:00.000Z</time>
      </trkpt>
      <trkpt lat="48.69476" lon="1.76146">
        <ele>173</ele>
        <time>2015-04-13T10:13:06.000Z</time>
      </trkpt>
      <trkpt lat="48.69477" lon="1.76148">
        <ele>173</ele>
        <time>2015-04-13T10:13:07.000Z</time>
      </trkpt>
      <trkpt lat="48.69481" lon="1.76156">
        <ele>173</ele>
        <time>2015-04-13T10:13:12.000Z</time>
      </trkpt>
      <trkpt lat="48.69486" lon="1.7616">
        <ele>173</ele>
        <time>2015-04-13T10:13:15.000Z</time>
      </trkpt>
      <trkpt lat="48.6949" lon="1.76168">
        <ele>173</ele>
        <time>2015-04-13T10:13:19.000Z</time>
      </trkpt>
      <trkpt lat="48.69497" lon="1.76184">
        <ele>173</ele>
        <time>2015-04-13T10:13:29.000Z</time>
      </trkpt>
      <trkpt lat="48.69502" lon="1.76192">
        <ele>173.1</ele>
        <time>2015-04-13T10:13:35.000Z</time>
      </trkpt>
      <trkpt lat="48.69508" lon="1.762">
        <ele>173.3</ele>
        <time>2015-04-13T10:13:41.000Z</time>
      </trkpt>
      <trkpt lat="48.69515" lon="1.76212">
        <ele>173.5</ele>
        <time>2015-04-13T10:13:48.000Z</time>
      </trkpt>
      <trkpt lat="48.69518" lon="1.76216">
        <ele>173.6</ele>
        <time>2015-04-13T10:13:51.000Z</time>
      </trkpt>
      <trkpt lat="48.6952" lon="1.76219">
        <ele>173.7</ele>
        <time>2015-04-13T10:13:55.000Z</time>
      </trkpt>
      <trkpt lat="48.69527" lon="1.76231">
        <ele>174</ele>
        <time>2015-04-13T10:14:01.000Z</time>
      </trkpt>
      <trkpt lat="48.69534" lon="1.76241">
        <ele>174</ele>
        <time>2015-04-13T10:14:08.000Z</time>
      </trkpt>
      <trkpt lat="48.6954" lon="1.76253">
        <ele>174</ele>
        <time>2015-04-13T10:14:15.000Z</time>
      </trkpt>
      <trkpt lat="48.69547" lon="1.76265">
        <ele>174</ele>
        <time>2015-04-13T10:14:22.000Z</time>
      </trkpt>
      <trkpt lat="48.69553" lon="1.76275">
        <ele>174</ele>
        <time>2015-04-13T10:14:28.000Z</time>
      </trkpt>
      <trkpt lat="48.69556" lon="1.7628">
        <ele>174</ele>
        <time>2015-04-13T10:14:31.000Z</time>
      </trkpt>
      <trkpt lat="48.69562" lon="1.76292">
        <ele>174</ele>
        <time>2015-04-13T10:14:38.000Z</time>
      </trkpt>
      <trkpt lat="48.69563" lon="1.76294">
        <ele>174</ele>
        <time>2015-04-13T10:14:39.000Z</time>
      </trkpt>
      <trkpt lat="48.6957" lon="1.76305">
        <ele>174</ele>
        <time>2015-04-13T10:14:46.000Z</time>
      </trkpt>
      <trkpt lat="48.69578" lon="1.76317">
        <ele>174</ele>
        <time>2015-04-13T10:14:54.000Z</time>
      </trkpt>
      <trkpt lat="48.69584" lon="1.76323">
        <ele>174</ele>
        <time>2015-04-13T10:14:59.000Z</time>
      </trkpt>
      <trkpt lat="48.69591" lon="1.76337">
        <ele>174</ele>
        <time>2015-04-13T10:15:07.000Z</time>
      </trkpt>
      <trkpt lat="48.69595" lon="1.76345">
        <ele>174</ele>
        <time>2015-04-13T10:15:11.000Z</time>
      </trkpt>
      <trkpt lat="48.69601" lon="1.76357">
        <ele>174</ele>
        <time>2015-04-13T10:15:18.000Z</time>
      </trkpt>
      <trkpt lat="48.69604" lon="1.76362">
        <ele>174</ele>
        <time>2015-04-13T10:15:21.000Z</time>
      </trkpt>
      <trkpt lat="48.69612" lon="1.76374">
        <ele>174</ele>
        <time>2015-04-13T10:15:28.000Z</time>
      </trkpt>
      <trkpt lat="48.69621" lon="1.76388">
        <ele>174</ele>
        <time>2015-04-13T10:15:36.000Z</time>
      </trkpt>
      <trkpt lat="48.69627" lon="1.764">
        <ele>174</ele>
        <time>2015-04-13T10:15:43.000Z</time>
      </trkpt>
      <trkpt lat="48.6963" lon="1.76406">
        <ele>174</ele>
        <time>2015-04-13T10:15:48.000Z</time>
      </trkpt>
      <trkpt lat="48.69638" lon="1.76421">
        <ele>174</ele>
        <time>2015-04-13T10:15:57.000Z</time>
      </trkpt>
      <trkpt lat="48.6964" lon="1.76423">
        <ele>174</ele>
        <time>2015-04-13T10:15:59.000Z</time>
      </trkpt>
      <trkpt lat="48.69647" lon="1.76435">
        <ele>174</ele>
        <time>2015-04-13T10:16:07.000Z</time>
      </trkpt>
      <trkpt lat="48.69651" lon="1.7644">
        <ele>174</ele>
        <time>2015-04-13T10:16:13.000Z</time>
      </trkpt>
      <trkpt lat="48.69655" lon="1.76449">
        <ele>174.2</ele>
        <time>2015-04-13T10:16:18.000Z</time>
      </trkpt>
      <trkpt lat="48.69662" lon="1.76465">
        <ele>174.7</ele>
        <time>2015-04-13T10:16:26.000Z</time>
      </trkpt>
      <trkpt lat="48.69666" lon="1.76472">
        <ele>175</ele>
        <time>2015-04-13T10:16:29.000Z</time>
      </trkpt>
      <trkpt lat="48.69672" lon="1.76478">
        <ele>175</ele>
        <time>2015-04-13T10:16:34.000Z</time>
      </trkpt>
      <trkpt lat="48.69676" lon="1.76485">
        <ele>175</ele>
        <time>2015-04-13T10:16:38.000Z</time>
      </trkpt>
      <trkpt lat="48.69682" lon="1.76491">
        <ele>175</ele>
        <time>2015-04-13T10:16:42.000Z</time>
      </trkpt>
      <trkpt lat="48.69693" lon="1.76505">
        <ele>175</ele>
        <time>2015-04-13T10:16:50.000Z</time>
      </trkpt>
      <trkpt lat="48.69697" lon="1.76511">
        <ele>175</ele>
        <time>2015-04-13T10:16:55.000Z</time>
      </trkpt>
      <trkpt lat="48.69699" lon="1.76515">
        <ele>175</ele>
        <time>2015-04-13T10:16:57.000Z</time>
      </trkpt>
      <trkpt lat="48.69701" lon="1.76523">
        <ele>175</ele>
        <time>2015-04-13T10:17:01.000Z</time>
      </trkpt>
      <trkpt lat="48.69708" lon="1.76535">
        <ele>175</ele>
        <time>2015-04-13T10:17:08.000Z</time>
      </trkpt>
      <trkpt lat="48.69713" lon="1.76539">
        <ele>175</ele>
        <time>2015-04-13T10:17:12.000Z</time>
      </trkpt>
      <trkpt lat="48.6972" lon="1.76552">
        <ele>175</ele>
        <time>2015-04-13T10:17:19.000Z</time>
      </trkpt>
      <trkpt lat="48.69725" lon="1.76563">
        <ele>175</ele>
        <time>2015-04-13T10:17:25.000Z</time>
      </trkpt>
      <trkpt lat="48.69731" lon="1.76573">
        <ele>175</ele>
        <time>2015-04-13T10:17:31.000Z</time>
      </trkpt>
      <trkpt lat="48.69734" lon="1.76578">
        <ele>175</ele>
        <time>2015-04-13T10:17:34.000Z</time>
      </trkpt>
      <trkpt lat="48.69739" lon="1.76582">
        <ele>175</ele>
        <time>2015-04-13T10:17:38.000Z</time>
      </trkpt>
      <trkpt lat="48.69743" lon="1.76588">
        <ele>175</ele>
        <time>2015-04-13T10:17:44.000Z</time>
      </trkpt>
      <trkpt lat="48.69743" lon="1.76589">
        <ele>175.1</ele>
        <time>2015-04-13T10:17:46.000Z</time>
      </trkpt>
      <trkpt lat="48.69744" lon="1.76597">
        <ele>175.1</ele>
        <time>2015-04-13T10:18:56.000Z</time>
      </trkpt>
      <trkpt lat="48.69745" lon="1.76601">
        <ele>175.1</ele>
        <time>2015-04-13T10:18:57.000Z</time>
      </trkpt>
      <trkpt lat="48.69749" lon="1.76608">
        <ele>175</ele>
        <time>2015-04-13T10:19:02.000Z</time>
      </trkpt>
      <trkpt lat="48.69754" lon="1.76614">
        <ele>175.1</ele>
        <time>2015-04-13T10:19:06.000Z</time>
      </trkpt>
      <trkpt lat="48.69762" lon="1.76622">
        <ele>175.2</ele>
        <time>2015-04-13T10:19:13.000Z</time>
      </trkpt>
      <trkpt lat="48.6977" lon="1.76631">
        <ele>175.2</ele>
        <time>2015-04-13T10:19:20.000Z</time>
      </trkpt>
      <trkpt lat="48.69778" lon="1.7664">
        <ele>175.1</ele>
        <time>2015-04-13T10:19:25.000Z</time>
      </trkpt>
      <trkpt lat="48.69782" lon="1.76645">
        <ele>175.2</ele>
        <time>2015-04-13T10:19:28.000Z</time>
      </trkpt>
      <trkpt lat="48.69789" lon="1.76652">
        <ele>175.3</ele>
        <time>2015-04-13T10:19:33.000Z</time>
      </trkpt>
      <trkpt lat="48.69797" lon="1.76662">
        <ele>175.2</ele>
        <time>2015-04-13T10:19:39.000Z</time>
      </trkpt>
      <trkpt lat="48.69804" lon="1.76668">
        <ele>175.1</ele>
        <time>2015-04-13T10:19:44.000Z</time>
      </trkpt>
      <trkpt lat="48.69812" lon="1.76677">
        <ele>175.3</ele>
        <time>2015-04-13T10:19:50.000Z</time>
      </trkpt>
      <trkpt lat="48.6982" lon="1.76686">
        <ele>175.3</ele>
        <time>2015-04-13T10:19:57.000Z</time>
      </trkpt>
      <trkpt lat="48.6983" lon="1.76698">
        <ele>175.2</ele>
        <time>2015-04-13T10:20:05.000Z</time>
      </trkpt>
      <trkpt lat="48.6984" lon="1.76708">
        <ele>175.4</ele>
        <time>2015-04-13T10:20:11.000Z</time>
      </trkpt>
      <trkpt lat="48.69842" lon="1.76711">
        <ele>175.4</ele>
        <time>2015-04-13T10:20:13.000Z</time>
      </trkpt>
      <trkpt lat="48.69848" lon="1.76718">
        <ele>175.4</ele>
        <time>2015-04-13T10:20:18.000Z</time>
      </trkpt>
      <trkpt lat="48.69851" lon="1.76724">
        <ele>175.4</ele>
        <time>2015-04-13T10:20:22.000Z</time>
      </trkpt>
      <trkpt lat="48.6986" lon="1.76733">
        <ele>175</ele>
        <time>2015-04-13T10:20:29.000Z</time>
      </trkpt>
      <trkpt lat="48.69868" lon="1.76741">
        <ele>175</ele>
        <time>2015-04-13T10:20:35.000Z</time>
      </trkpt>
      <trkpt lat="48.69871" lon="1.76745">
        <ele>175</ele>
        <time>2015-04-13T10:20:38.000Z</time>
      </trkpt>
      <trkpt lat="48.69877" lon="1.76751">
        <ele>175</ele>
        <time>2015-04-13T10:20:43.000Z</time>
      </trkpt>
      <trkpt lat="48.69882" lon="1.76758">
        <ele>175.1</ele>
        <time>2015-04-13T10:20:48.000Z</time>
      </trkpt>
      <trkpt lat="48.69887" lon="1.76763">
        <ele>175</ele>
        <time>2015-04-13T10:20:52.000Z</time>
      </trkpt>
      <trkpt lat="48.69895" lon="1.76773">
        <ele>175</ele>
        <time>2015-04-13T10:20:58.000Z</time>
      </trkpt>
      <trkpt lat="48.69904" lon="1.76782">
        <ele>175.1</ele>
        <time>2015-04-13T10:21:05.000Z</time>
      </trkpt>
      <trkpt lat="48.6991" lon="1.76783">
        <ele>175</ele>
        <time>2015-04-13T10:21:09.000Z</time>
      </trkpt>
      <trkpt lat="48.69918" lon="1.76779">
        <ele>175</ele>
        <time>2015-04-13T10:21:15.000Z</time>
      </trkpt>
      <trkpt lat="48.69921" lon="1.76777">
        <ele>175</ele>
        <time>2015-04-13T10:21:17.000Z</time>
      </trkpt>
      <trkpt lat="48.69933" lon="1.76774">
        <ele>175</ele>
        <time>2015-04-13T10:21:24.000Z</time>
      </trkpt>
      <trkpt lat="48.69938" lon="1.76774">
        <ele>175</ele>
        <time>2015-04-13T10:21:28.000Z</time>
      </trkpt>
      <trkpt lat="48.69952" lon="1.76774">
        <ele>175</ele>
        <time>2015-04-13T10:21:37.000Z</time>
      </trkpt>
      <trkpt lat="48.69963" lon="1.76776">
        <ele>174.9</ele>
        <time>2015-04-13T10:21:44.000Z</time>
      </trkpt>
      <trkpt lat="48.69974" lon="1.76776">
        <ele>174.9</ele>
        <time>2015-04-13T10:21:51.000Z</time>
      </trkpt>
      <trkpt lat="48.69984" lon="1.76776">
        <ele>174.5</ele>
        <time>2015-04-13T10:21:58.000Z</time>
      </trkpt>
      <trkpt lat="48.69986" lon="1.76776">
        <ele>174.5</ele>
        <time>2015-04-13T10:21:59.000Z</time>
      </trkpt>
      <trkpt lat="48.69997" lon="1.76776">
        <ele>174.1</ele>
        <time>2015-04-13T10:22:06.000Z</time>
      </trkpt>
      <trkpt lat="48.70001" lon="1.76777">
        <ele>174</ele>
        <time>2015-04-13T10:22:09.000Z</time>
      </trkpt>
      <trkpt lat="48.70006" lon="1.76779">
        <ele>174</ele>
        <time>2015-04-13T10:22:13.000Z</time>
      </trkpt>
      <trkpt lat="48.70017" lon="1.76779">
        <ele>174.1</ele>
        <time>2015-04-13T10:22:20.000Z</time>
      </trkpt>
      <trkpt lat="48.70026" lon="1.76778">
        <ele>174</ele>
        <time>2015-04-13T10:22:26.000Z</time>
      </trkpt>
      <trkpt lat="48.70035" lon="1.76778">
        <ele>174</ele>
        <time>2015-04-13T10:22:31.000Z</time>
      </trkpt>
      <trkpt lat="48.70042" lon="1.7678">
        <ele>174</ele>
        <time>2015-04-13T10:22:35.000Z</time>
      </trkpt>
      <trkpt lat="48.7005" lon="1.7678">
        <ele>174</ele>
        <time>2015-04-13T10:22:42.000Z</time>
      </trkpt>
      <trkpt lat="48.70059" lon="1.76782">
        <ele>174</ele>
        <time>2015-04-13T10:22:47.000Z</time>
      </trkpt>
      <trkpt lat="48.70069" lon="1.76781">
        <ele>174</ele>
        <time>2015-04-13T10:22:53.000Z</time>
      </trkpt>
      <trkpt lat="48.70078" lon="1.76783">
        <ele>174</ele>
        <time>2015-04-13T10:22:58.000Z</time>
      </trkpt>
      <trkpt lat="48.70088" lon="1.76781">
        <ele>174</ele>
        <time>2015-04-13T10:23:04.000Z</time>
      </trkpt>
      <trkpt lat="48.70095" lon="1.76781">
        <ele>174.1</ele>
        <time>2015-04-13T10:23:09.000Z</time>
      </trkpt>
      <trkpt lat="48.70107" lon="1.76778">
        <ele>174</ele>
        <time>2015-04-13T10:23:16.000Z</time>
      </trkpt>
      <trkpt lat="48.70115" lon="1.76778">
        <ele>174.1</ele>
        <time>2015-04-13T10:23:22.000Z</time>
      </trkpt>
      <trkpt lat="48.7012" lon="1.76778">
        <ele>174.3</ele>
        <time>2015-04-13T10:23:26.000Z</time>
      </trkpt>
      <trkpt lat="48.70129" lon="1.7678">
        <ele>174.7</ele>
        <time>2015-04-13T10:23:32.000Z</time>
      </trkpt>
      <trkpt lat="48.70133" lon="1.76779">
        <ele>174.8</ele>
        <time>2015-04-13T10:23:37.000Z</time>
      </trkpt>
      <trkpt lat="48.70138" lon="1.76778">
        <ele>175</ele>
        <time>2015-04-13T10:23:41.000Z</time>
      </trkpt>
      <trkpt lat="48.70149" lon="1.76776">
        <ele>174.6</ele>
        <time>2015-04-13T10:23:49.000Z</time>
      </trkpt>
      <trkpt lat="48.7016" lon="1.7677">
        <ele>174.2</ele>
        <time>2015-04-13T10:23:57.000Z</time>
      </trkpt>
      <trkpt lat="48.70167" lon="1.76763">
        <ele>174</ele>
        <time>2015-04-13T10:24:03.000Z</time>
      </trkpt>
      <trkpt lat="48.70172" lon="1.76757">
        <ele>173.9</ele>
        <time>2015-04-13T10:24:07.000Z</time>
      </trkpt>
      <trkpt lat="48.70177" lon="1.76752">
        <ele>173.6</ele>
        <time>2015-04-13T10:24:11.000Z</time>
      </trkpt>
      <trkpt lat="48.70187" lon="1.76742">
        <ele>173.3</ele>
        <time>2015-04-13T10:24:20.000Z</time>
      </trkpt>
      <trkpt lat="48.70193" lon="1.76736">
        <ele>173</ele>
        <time>2015-04-13T10:24:24.000Z</time>
      </trkpt>
      <trkpt lat="48.70203" lon="1.76724">
        <ele>172.7</ele>
        <time>2015-04-13T10:24:31.000Z</time>
      </trkpt>
      <trkpt lat="48.70212" lon="1.76717">
        <ele>172.4</ele>
        <time>2015-04-13T10:24:37.000Z</time>
      </trkpt>
      <trkpt lat="48.70217" lon="1.76709">
        <ele>172.2</ele>
        <time>2015-04-13T10:24:43.000Z</time>
      </trkpt>
      <trkpt lat="48.70222" lon="1.76706">
        <ele>172</ele>
        <time>2015-04-13T10:24:47.000Z</time>
      </trkpt>
      <trkpt lat="48.70228" lon="1.76702">
        <ele>171.9</ele>
        <time>2015-04-13T10:24:51.000Z</time>
      </trkpt>
      <trkpt lat="48.70235" lon="1.76698">
        <ele>171.6</ele>
        <time>2015-04-13T10:24:57.000Z</time>
      </trkpt>
      <trkpt lat="48.70242" lon="1.76693">
        <ele>171.3</ele>
        <time>2015-04-13T10:25:02.000Z</time>
      </trkpt>
      <trkpt lat="48.70245" lon="1.76693">
        <ele>171.2</ele>
        <time>2015-04-13T10:25:07.000Z</time>
      </trkpt>
      <trkpt lat="48.70251" lon="1.76691">
        <ele>171</ele>
        <time>2015-04-13T10:25:15.000Z</time>
      </trkpt>
      <trkpt lat="48.70255" lon="1.76691">
        <ele>171</ele>
        <time>2015-04-13T10:25:17.000Z</time>
      </trkpt>
      <trkpt lat="48.70259" lon="1.76687">
        <ele>171</ele>
        <time>2015-04-13T10:25:21.000Z</time>
      </trkpt>
      <trkpt lat="48.70265" lon="1.76682">
        <ele>171</ele>
        <time>2015-04-13T10:25:27.000Z</time>
      </trkpt>
      <trkpt lat="48.70274" lon="1.76681">
        <ele>171</ele>
        <time>2015-04-13T10:25:33.000Z</time>
      </trkpt>
      <trkpt lat="48.70282" lon="1.76675">
        <ele>171</ele>
        <time>2015-04-13T10:25:39.000Z</time>
      </trkpt>
      <trkpt lat="48.70285" lon="1.76674">
        <ele>171.1</ele>
        <time>2015-04-13T10:25:41.000Z</time>
      </trkpt>
      <trkpt lat="48.7029" lon="1.7667">
        <ele>171.1</ele>
        <time>2015-04-13T10:25:45.000Z</time>
      </trkpt>
      <trkpt lat="48.70302" lon="1.76664">
        <ele>170.9</ele>
        <time>2015-04-13T10:25:53.000Z</time>
      </trkpt>
      <trkpt lat="48.70305" lon="1.76661">
        <ele>170.8</ele>
        <time>2015-04-13T10:25:56.000Z</time>
      </trkpt>
      <trkpt lat="48.70311" lon="1.76655">
        <ele>170.8</ele>
        <time>2015-04-13T10:26:01.000Z</time>
      </trkpt>
      <trkpt lat="48.70325" lon="1.76643">
        <ele>170.8</ele>
        <time>2015-04-13T10:26:12.000Z</time>
      </trkpt>
      <trkpt lat="48.70328" lon="1.76641">
        <ele>170.9</ele>
        <time>2015-04-13T10:26:15.000Z</time>
      </trkpt>
      <trkpt lat="48.70336" lon="1.76634">
        <ele>171.2</ele>
        <time>2015-04-13T10:26:21.000Z</time>
      </trkpt>
      <trkpt lat="48.70346" lon="1.76624">
        <ele>171.7</ele>
        <time>2015-04-13T10:26:29.000Z</time>
      </trkpt>
      <trkpt lat="48.70348" lon="1.76622">
        <ele>171.7</ele>
        <time>2015-04-13T10:26:31.000Z</time>
      </trkpt>
      <trkpt lat="48.70358" lon="1.76616">
        <ele>172.1</ele>
        <time>2015-04-13T10:26:37.000Z</time>
      </trkpt>
      <trkpt lat="48.70365" lon="1.76615">
        <ele>172.3</ele>
        <time>2015-04-13T10:26:42.000Z</time>
      </trkpt>
      <trkpt lat="48.70374" lon="1.76608">
        <ele>172.5</ele>
        <time>2015-04-13T10:26:48.000Z</time>
      </trkpt>
      <trkpt lat="48.70384" lon="1.76603">
        <ele>172.8</ele>
        <time>2015-04-13T10:26:54.000Z</time>
      </trkpt>
      <trkpt lat="48.70391" lon="1.766">
        <ele>173</ele>
        <time>2015-04-13T10:26:59.000Z</time>
      </trkpt>
      <trkpt lat="48.70401" lon="1.76593">
        <ele>173.2</ele>
        <time>2015-04-13T10:27:05.000Z</time>
      </trkpt>
      <trkpt lat="48.70407" lon="1.76589">
        <ele>173.1</ele>
        <time>2015-04-13T10:27:09.000Z</time>
      </trkpt>
      <trkpt lat="48.70415" lon="1.76583">
        <ele>173</ele>
        <time>2015-04-13T10:27:15.000Z</time>
      </trkpt>
      <trkpt lat="48.70424" lon="1.76578">
        <ele>173.2</ele>
        <time>2015-04-13T10:27:22.000Z</time>
      </trkpt>
      <trkpt lat="48.70426" lon="1.76577">
        <ele>173.3</ele>
        <time>2015-04-13T10:27:24.000Z</time>
      </trkpt>
      <trkpt lat="48.70433" lon="1.76567">
        <ele>173.2</ele>
        <time>2015-04-13T10:27:30.000Z</time>
      </trkpt>
      <trkpt lat="48.70439" lon="1.76547">
        <ele>172.7</ele>
        <time>2015-04-13T10:27:39.000Z</time>
      </trkpt>
      <trkpt lat="48.70442" lon="1.76531">
        <ele>172.1</ele>
        <time>2015-04-13T10:27:47.000Z</time>
      </trkpt>
      <trkpt lat="48.70444" lon="1.76513">
        <ele>172</ele>
        <time>2015-04-13T10:27:54.000Z</time>
      </trkpt>
      <trkpt lat="48.70447" lon="1.76497">
        <ele>171.9</ele>
        <time>2015-04-13T10:28:01.000Z</time>
      </trkpt>
      <trkpt lat="48.70448" lon="1.7649">
        <ele>171.6</ele>
        <time>2015-04-13T10:28:04.000Z</time>
      </trkpt>
      <trkpt lat="48.7045" lon="1.76483">
        <ele>171.4</ele>
        <time>2015-04-13T10:28:07.000Z</time>
      </trkpt>
      <trkpt lat="48.70455" lon="1.7647">
        <ele>170.9</ele>
        <time>2015-04-13T10:28:14.000Z</time>
      </trkpt>
      <trkpt lat="48.70459" lon="1.76453">
        <ele>170.3</ele>
        <time>2015-04-13T10:28:22.000Z</time>
      </trkpt>
      <trkpt lat="48.7046" lon="1.76451">
        <ele>170.2</ele>
        <time>2015-04-13T10:28:23.000Z</time>
      </trkpt>
      <trkpt lat="48.70462" lon="1.76442">
        <ele>170</ele>
        <time>2015-04-13T10:28:27.000Z</time>
      </trkpt>
      <trkpt lat="48.70463" lon="1.76431">
        <ele>169.8</ele>
        <time>2015-04-13T10:28:33.000Z</time>
      </trkpt>
      <trkpt lat="48.70464" lon="1.7642">
        <ele>169.7</ele>
        <time>2015-04-13T10:28:39.000Z</time>
      </trkpt>
      <trkpt lat="48.7046" lon="1.76408">
        <ele>169.3</ele>
        <time>2015-04-13T10:28:44.000Z</time>
      </trkpt>
      <trkpt lat="48.70457" lon="1.76401">
        <ele>168.9</ele>
        <time>2015-04-13T10:28:48.000Z</time>
      </trkpt>
      <trkpt lat="48.70454" lon="1.76389">
        <ele>168.4</ele>
        <time>2015-04-13T10:28:53.000Z</time>
      </trkpt>
      <trkpt lat="48.70452" lon="1.76378">
        <ele>168.3</ele>
        <time>2015-04-13T10:28:58.000Z</time>
      </trkpt>
      <trkpt lat="48.70452" lon="1.76375">
        <ele>168.3</ele>
        <time>2015-04-13T10:28:59.000Z</time>
      </trkpt>
      <trkpt lat="48.70449" lon="1.76351">
        <ele>168.2</ele>
        <time>2015-04-13T10:29:09.000Z</time>
      </trkpt>
      <trkpt lat="48.70447" lon="1.76339">
        <ele>168.1</ele>
        <time>2015-04-13T10:29:15.000Z</time>
      </trkpt>
      <trkpt lat="48.70445" lon="1.76321">
        <ele>168</ele>
        <time>2015-04-13T10:29:23.000Z</time>
      </trkpt>
      <trkpt lat="48.70444" lon="1.76303">
        <ele>168.1</ele>
        <time>2015-04-13T10:29:31.000Z</time>
      </trkpt>
      <trkpt lat="48.70445" lon="1.76289">
        <ele>168.6</ele>
        <time>2015-04-13T10:29:37.000Z</time>
      </trkpt>
      <trkpt lat="48.70447" lon="1.76278">
        <ele>169.1</ele>
        <time>2015-04-13T10:29:42.000Z</time>
      </trkpt>
      <trkpt lat="48.70448" lon="1.76273">
        <ele>169</ele>
        <time>2015-04-13T10:29:45.000Z</time>
      </trkpt>
      <trkpt lat="48.7045" lon="1.76268">
        <ele>168.9</ele>
        <time>2015-04-13T10:29:49.000Z</time>
      </trkpt>
      <trkpt lat="48.70454" lon="1.76249">
        <ele>168.7</ele>
        <time>2015-04-13T10:29:57.000Z</time>
      </trkpt>
      <trkpt lat="48.70458" lon="1.76234">
        <ele>168.4</ele>
        <time>2015-04-13T10:30:04.000Z</time>
      </trkpt>
      <trkpt lat="48.70459" lon="1.7623">
        <ele>168.3</ele>
        <time>2015-04-13T10:30:06.000Z</time>
      </trkpt>
      <trkpt lat="48.70458" lon="1.7622">
        <ele>167.9</ele>
        <time>2015-04-13T10:30:11.000Z</time>
      </trkpt>
      <trkpt lat="48.70455" lon="1.76203">
        <ele>167.5</ele>
        <time>2015-04-13T10:30:19.000Z</time>
      </trkpt>
      <trkpt lat="48.70453" lon="1.76188">
        <ele>167.3</ele>
        <time>2015-04-13T10:30:26.000Z</time>
      </trkpt>
      <trkpt lat="48.70449" lon="1.76167">
        <ele>167.2</ele>
        <time>2015-04-13T10:30:36.000Z</time>
      </trkpt>
      <trkpt lat="48.7045" lon="1.76157">
        <ele>167.2</ele>
        <time>2015-04-13T10:30:42.000Z</time>
      </trkpt>
      <trkpt lat="48.70451" lon="1.76151">
        <ele>167.2</ele>
        <time>2015-04-13T10:30:45.000Z</time>
      </trkpt>
      <trkpt lat="48.70453" lon="1.76133">
        <ele>167.5</ele>
        <time>2015-04-13T10:30:53.000Z</time>
      </trkpt>
      <trkpt lat="48.70454" lon="1.76128">
        <ele>167.6</ele>
        <time>2015-04-13T10:30:56.000Z</time>
      </trkpt>
      <trkpt lat="48.70456" lon="1.76125">
        <ele>167.7</ele>
        <time>2015-04-13T10:31:00.000Z</time>
      </trkpt>
      <trkpt lat="48.70457" lon="1.76124">
        <ele>167.7</ele>
        <time>2015-04-13T10:31:03.000Z</time>
      </trkpt>
      <trkpt lat="48.70462" lon="1.76099">
        <ele>168</ele>
        <time>2015-04-13T10:31:43.000Z</time>
      </trkpt>
      <trkpt lat="48.70464" lon="1.76092">
        <ele>168</ele>
        <time>2015-04-13T10:31:46.000Z</time>
      </trkpt>
      <trkpt lat="48.70467" lon="1.76079">
        <ele>168.1</ele>
        <time>2015-04-13T10:31:54.000Z</time>
      </trkpt>
      <trkpt lat="48.7047" lon="1.76065">
        <ele>168.6</ele>
        <time>2015-04-13T10:32:00.000Z</time>
      </trkpt>
      <trkpt lat="48.70472" lon="1.76051">
        <ele>169</ele>
        <time>2015-04-13T10:32:07.000Z</time>
      </trkpt>
      <trkpt lat="48.70474" lon="1.76039">
        <ele>169</ele>
        <time>2015-04-13T10:32:12.000Z</time>
      </trkpt>
      <trkpt lat="48.70476" lon="1.76024">
        <ele>169.1</ele>
        <time>2015-04-13T10:32:19.000Z</time>
      </trkpt>
      <trkpt lat="48.70477" lon="1.76022">
        <ele>169.2</ele>
        <time>2015-04-13T10:32:20.000Z</time>
      </trkpt>
      <trkpt lat="48.70479" lon="1.76014">
        <ele>169.4</ele>
        <time>2015-04-13T10:32:24.000Z</time>
      </trkpt>
      <trkpt lat="48.70482" lon="1.76">
        <ele>169.6</ele>
        <time>2015-04-13T10:32:31.000Z</time>
      </trkpt>
      <trkpt lat="48.70487" lon="1.75989">
        <ele>169.7</ele>
        <time>2015-04-13T10:32:36.000Z</time>
      </trkpt>
      <trkpt lat="48.70493" lon="1.75973">
        <ele>170</ele>
        <time>2015-04-13T10:32:44.000Z</time>
      </trkpt>
      <trkpt lat="48.70498" lon="1.7596">
        <ele>170</ele>
        <time>2015-04-13T10:32:51.000Z</time>
      </trkpt>
      <trkpt lat="48.70505" lon="1.75949">
        <ele>170</ele>
        <time>2015-04-13T10:32:58.000Z</time>
      </trkpt>
      <trkpt lat="48.70511" lon="1.75942">
        <ele>170.1</ele>
        <time>2015-04-13T10:33:04.000Z</time>
      </trkpt>
      <trkpt lat="48.70513" lon="1.75939">
        <ele>170.1</ele>
        <time>2015-04-13T10:33:06.000Z</time>
      </trkpt>
      <trkpt lat="48.70517" lon="1.75932">
        <ele>170.2</ele>
        <time>2015-04-13T10:33:11.000Z</time>
      </trkpt>
      <trkpt lat="48.7052" lon="1.75928">
        <ele>170.2</ele>
        <time>2015-04-13T10:33:14.000Z</time>
      </trkpt>
      <trkpt lat="48.70527" lon="1.75916">
        <ele>170</ele>
        <time>2015-04-13T10:33:22.000Z</time>
      </trkpt>
      <trkpt lat="48.70534" lon="1.75906">
        <ele>170.4</ele>
        <time>2015-04-13T10:33:28.000Z</time>
      </trkpt>
      <trkpt lat="48.70539" lon="1.75892">
        <ele>170.9</ele>
        <time>2015-04-13T10:33:35.000Z</time>
      </trkpt>
      <trkpt lat="48.70542" lon="1.75886">
        <ele>171</ele>
        <time>2015-04-13T10:33:38.000Z</time>
      </trkpt>
      <trkpt lat="48.70546" lon="1.75878">
        <ele>171</ele>
        <time>2015-04-13T10:33:43.000Z</time>
      </trkpt>
      <trkpt lat="48.70553" lon="1.75862">
        <ele>171</ele>
        <time>2015-04-13T10:33:52.000Z</time>
      </trkpt>
      <trkpt lat="48.70554" lon="1.7586">
        <ele>171</ele>
        <time>2015-04-13T10:33:53.000Z</time>
      </trkpt>
      <trkpt lat="48.70558" lon="1.75852">
        <ele>171</ele>
        <time>2015-04-13T10:33:57.000Z</time>
      </trkpt>
      <trkpt lat="48.70566" lon="1.75843">
        <ele>171</ele>
        <time>2015-04-13T10:34:04.000Z</time>
      </trkpt>
      <trkpt lat="48.70572" lon="1.75828">
        <ele>171.2</ele>
        <time>2015-04-13T10:34:11.000Z</time>
      </trkpt>
      <trkpt lat="48.70574" lon="1.75822">
        <ele>171.4</ele>
        <time>2015-04-13T10:34:14.000Z</time>
      </trkpt>
      <trkpt lat="48.70578" lon="1.7581">
        <ele>171.9</ele>
        <time>2015-04-13T10:34:21.000Z</time>
      </trkpt>
      <trkpt lat="48.70581" lon="1.75807">
        <ele>171.9</ele>
        <time>2015-04-13T10:34:24.000Z</time>
      </trkpt>
      <trkpt lat="48.70584" lon="1.75798">
        <ele>172</ele>
        <time>2015-04-13T10:34:28.000Z</time>
      </trkpt>
      <trkpt lat="48.70592" lon="1.75781">
        <ele>172</ele>
        <time>2015-04-13T10:34:37.000Z</time>
      </trkpt>
      <trkpt lat="48.70598" lon="1.75772">
        <ele>172</ele>
        <time>2015-04-13T10:34:43.000Z</time>
      </trkpt>
      <trkpt lat="48.706" lon="1.75768">
        <ele>172</ele>
        <time>2015-04-13T10:34:48.000Z</time>
      </trkpt>
      <trkpt lat="48.70604" lon="1.75761">
        <ele>172</ele>
        <time>2015-04-13T10:34:57.000Z</time>
      </trkpt>
      <trkpt lat="48.70612" lon="1.75747">
        <ele>172</ele>
        <time>2015-04-13T10:35:05.000Z</time>
      </trkpt>
      <trkpt lat="48.70616" lon="1.7574">
        <ele>172</ele>
        <time>2015-04-13T10:35:10.000Z</time>
      </trkpt>
      <trkpt lat="48.70622" lon="1.75731">
        <ele>172</ele>
        <time>2015-04-13T10:35:16.000Z</time>
      </trkpt>
      <trkpt lat="48.70626" lon="1.7572">
        <ele>172</ele>
        <time>2015-04-13T10:35:24.000Z</time>
      </trkpt>
      <trkpt lat="48.70627" lon="1.75719">
        <ele>172</ele>
        <time>2015-04-13T10:35:25.000Z</time>
      </trkpt>
      <trkpt lat="48.70633" lon="1.75708">
        <ele>172</ele>
        <time>2015-04-13T10:35:32.000Z</time>
      </trkpt>
      <trkpt lat="48.70638" lon="1.75701">
        <ele>172</ele>
        <time>2015-04-13T10:35:37.000Z</time>
      </trkpt>
      <trkpt lat="48.7064" lon="1.75695">
        <ele>172</ele>
        <time>2015-04-13T10:35:43.000Z</time>
      </trkpt>
      <trkpt lat="48.70642" lon="1.75686">
        <ele>172.3</ele>
        <time>2015-04-13T10:35:50.000Z</time>
      </trkpt>
      <trkpt lat="48.70642" lon="1.75686">
        <ele>172.3</ele>
        <time>2015-04-13T10:35:51.000Z</time>
      </trkpt>
      <trkpt lat="48.7064" lon="1.75675">
        <ele>172.7</ele>
        <time>2015-04-13T10:36:31.000Z</time>
      </trkpt>
      <trkpt lat="48.70639" lon="1.75663">
        <ele>173</ele>
        <time>2015-04-13T10:36:36.000Z</time>
      </trkpt>
      <trkpt lat="48.70637" lon="1.75654">
        <ele>173</ele>
        <time>2015-04-13T10:36:40.000Z</time>
      </trkpt>
      <trkpt lat="48.70638" lon="1.7564">
        <ele>173</ele>
        <time>2015-04-13T10:36:46.000Z</time>
      </trkpt>
      <trkpt lat="48.70639" lon="1.75639">
        <ele>173</ele>
        <time>2015-04-13T10:36:47.000Z</time>
      </trkpt>
      <trkpt lat="48.7064" lon="1.75628">
        <ele>172.6</ele>
        <time>2015-04-13T10:36:52.000Z</time>
      </trkpt>
      <trkpt lat="48.70642" lon="1.75622">
        <ele>172.4</ele>
        <time>2015-04-13T10:36:55.000Z</time>
      </trkpt>
      <trkpt lat="48.70644" lon="1.75616">
        <ele>172.3</ele>
        <time>2015-04-13T10:36:59.000Z</time>
      </trkpt>
      <trkpt lat="48.70649" lon="1.75608">
        <ele>172.4</ele>
        <time>2015-04-13T10:37:04.000Z</time>
      </trkpt>
      <trkpt lat="48.70654" lon="1.75605">
        <ele>172.5</ele>
        <time>2015-04-13T10:37:07.000Z</time>
      </trkpt>
      <trkpt lat="48.70659" lon="1.75591">
        <ele>172.7</ele>
        <time>2015-04-13T10:37:15.000Z</time>
      </trkpt>
      <trkpt lat="48.7066" lon="1.7559">
        <ele>172.8</ele>
        <time>2015-04-13T10:37:16.000Z</time>
      </trkpt>
      <trkpt lat="48.70661" lon="1.75579">
        <ele>172.8</ele>
        <time>2015-04-13T10:37:21.000Z</time>
      </trkpt>
      <trkpt lat="48.70668" lon="1.75564">
        <ele>173</ele>
        <time>2015-04-13T10:37:30.000Z</time>
      </trkpt>
      <trkpt lat="48.70672" lon="1.75556">
        <ele>173</ele>
        <time>2015-04-13T10:37:36.000Z</time>
      </trkpt>
      <trkpt lat="48.70676" lon="1.75549">
        <ele>173</ele>
        <time>2015-04-13T10:37:40.000Z</time>
      </trkpt>
      <trkpt lat="48.7068" lon="1.75541">
        <ele>173</ele>
        <time>2015-04-13T10:37:45.000Z</time>
      </trkpt>
      <trkpt lat="48.70684" lon="1.75529">
        <ele>173</ele>
        <time>2015-04-13T10:37:52.000Z</time>
      </trkpt>
      <trkpt lat="48.7069" lon="1.7552">
        <ele>173</ele>
        <time>2015-04-13T10:37:59.000Z</time>
      </trkpt>
      <trkpt lat="48.7069" lon="1.75519">
        <ele>173</ele>
        <time>2015-04-13T10:38:01.000Z</time>
      </trkpt>
      <trkpt lat="48.70701" lon="1.75486">
        <ele>173</ele>
        <time>2015-04-13T10:39:42.000Z</time>
      </trkpt>
      <trkpt lat="48.70701" lon="1.75488">
        <ele>173</ele>
        <time>2015-04-13T10:39:46.000Z</time>
      </trkpt>
      <trkpt lat="48.707" lon="1.75481">
        <ele>173</ele>
        <time>2015-04-13T10:39:51.000Z</time>
      </trkpt>
      <trkpt lat="48.70701" lon="1.7548">
        <ele>173</ele>
        <time>2015-04-13T10:39:55.000Z</time>
      </trkpt>
      <trkpt lat="48.70702" lon="1.75481">
        <ele>173</ele>
        <time>2015-04-13T10:39:59.000Z</time>
      </trkpt>
      <trkpt lat="48.70692" lon="1.75463">
        <ele>173</ele>
        <time>2015-04-13T10:40:42.000Z</time>
      </trkpt>
      <trkpt lat="48.7069" lon="1.75456">
        <ele>173</ele>
        <time>2015-04-13T10:40:46.000Z</time>
      </trkpt>
      <trkpt lat="48.70687" lon="1.7545">
        <ele>173</ele>
        <time>2015-04-13T10:40:50.000Z</time>
      </trkpt>
    </trkseg>
  </trk>
</gpx>